<?xml version="1.0" encoding="UTF-8" standalone="no" ?>
<gpx xmlns="http://www.topografix.com/GPX/1/1" xmlns:xsi="http://www.w3.org/2001/XMLSchema-instance" xsi:schemaLocation="http://www.topografix.com/GPX/1/1 http://www.topografix.com/GPX/1/1/gpx.xsd" version="1.1" creator="VisuGPX - https://www.visugpx.com">
  <metadata>
    <name>VILLEREAL-14juillet</name>
  </metadata>
  <trk>
    <name><![CDATA[P2 - Miramont Villereal-Monbazillac]]></name>
    <extensions>
      <line xmlns="http://www.topografix.com/GPX/gpx_style/0/2">
        <color>0bd018</color>
        <width>4</width>
      </line>
    </extensions>
    <trkseg>
      <trkpt lat="44.60211" lon="0.36177">
        <ele>57.373154</ele>
        <time>2022-07-11T15:53:14.369Z</time>
      </trkpt>
      <trkpt lat="44.60229" lon="0.36194">
        <ele>57.285854</ele>
        <time>2022-07-11T15:53:17.490Z</time>
      </trkpt>
      <trkpt lat="44.60276" lon="0.36238">
        <ele>57.335631</ele>
        <time>2022-07-11T15:53:25.872Z</time>
      </trkpt>
      <trkpt lat="44.60284" lon="0.36246">
        <ele>57.344236</ele>
        <time>2022-07-11T15:53:27.484Z</time>
      </trkpt>
      <trkpt lat="44.60347" lon="0.36318">
        <ele>57.415918</ele>
        <time>2022-07-11T15:53:44.821Z</time>
      </trkpt>
      <trkpt lat="44.60358" lon="0.36331">
        <ele>57.428581</ele>
        <time>2022-07-11T15:53:49.352Z</time>
      </trkpt>
      <trkpt lat="44.60377" lon="0.36355">
        <ele>58.414471</ele>
        <time>2022-07-11T15:53:57.187Z</time>
      </trkpt>
      <trkpt lat="44.60413" lon="0.36401">
        <ele>60.878174</ele>
        <time>2022-07-11T15:54:16.592Z</time>
      </trkpt>
      <trkpt lat="44.60528" lon="0.36479">
        <ele>66.981956</ele>
        <time>2022-07-11T15:55:10.445Z</time>
      </trkpt>
      <trkpt lat="44.60547" lon="0.36493">
        <ele>67.446632</ele>
        <time>2022-07-11T15:55:18.562Z</time>
      </trkpt>
      <trkpt lat="44.60579" lon="0.36518">
        <ele>68.249146</ele>
        <time>2022-07-11T15:55:29.877Z</time>
      </trkpt>
      <trkpt lat="44.60701" lon="0.36893">
        <ele>71.33658</ele>
        <time>2022-07-11T15:56:28.355Z</time>
      </trkpt>
      <trkpt lat="44.6071" lon="0.36919">
        <ele>71.470276</ele>
        <time>2022-07-11T15:56:33.120Z</time>
      </trkpt>
      <trkpt lat="44.60716" lon="0.36937">
        <ele>71.563956</ele>
        <time>2022-07-11T15:56:36.418Z</time>
      </trkpt>
      <trkpt lat="44.60737" lon="0.37003">
        <ele>71.896586</ele>
        <time>2022-07-11T15:56:47.211Z</time>
      </trkpt>
      <trkpt lat="44.60739" lon="0.37009">
        <ele>71.927673</ele>
        <time>2022-07-11T15:56:48.124Z</time>
      </trkpt>
      <trkpt lat="44.60774" lon="0.37121">
        <ele>72.494725</ele>
        <time>2022-07-11T15:57:06.898Z</time>
      </trkpt>
      <trkpt lat="44.60776" lon="0.37133">
        <ele>72.554122</ele>
        <time>2022-07-11T15:57:08.793Z</time>
      </trkpt>
      <trkpt lat="44.60778" lon="0.37139">
        <ele>72.582821</ele>
        <time>2022-07-11T15:57:09.653Z</time>
      </trkpt>
      <trkpt lat="44.60785" lon="0.37209">
        <ele>72.918123</ele>
        <time>2022-07-11T15:57:19.709Z</time>
      </trkpt>
      <trkpt lat="44.6081" lon="0.37211">
        <ele>73.085375</ele>
        <time>2022-07-11T15:57:24.803Z</time>
      </trkpt>
      <trkpt lat="44.6081" lon="0.37272">
        <ele>73.372807</ele>
        <time>2022-07-11T15:57:33.958Z</time>
      </trkpt>
      <trkpt lat="44.60817" lon="0.37284">
        <ele>73.446154</ele>
        <time>2022-07-11T15:57:36.803Z</time>
      </trkpt>
      <trkpt lat="44.60863" lon="0.37312">
        <ele>73.753081</ele>
        <time>2022-07-11T15:57:46.459Z</time>
      </trkpt>
      <trkpt lat="44.60888" lon="0.37352">
        <ele>73.953402</ele>
        <time>2022-07-11T15:57:54.641Z</time>
      </trkpt>
      <trkpt lat="44.60938" lon="0.37384">
        <ele>74.245211</ele>
        <time>2022-07-11T15:58:06.747Z</time>
      </trkpt>
      <trkpt lat="44.60911" lon="0.37439">
        <ele>74.495452</ele>
        <time>2022-07-11T15:58:15.701Z</time>
      </trkpt>
      <trkpt lat="44.60878" lon="0.37528">
        <ele>74.602586</ele>
        <time>2022-07-11T15:58:27.841Z</time>
      </trkpt>
      <trkpt lat="44.60859" lon="0.37608">
        <ele>74.597635</ele>
        <time>2022-07-11T15:58:37.600Z</time>
      </trkpt>
      <trkpt lat="44.60838" lon="0.3766">
        <ele>74.594098</ele>
        <time>2022-07-11T15:58:45.556Z</time>
      </trkpt>
      <trkpt lat="44.60818" lon="0.37694">
        <ele>74.722373</ele>
        <time>2022-07-11T15:58:51.866Z</time>
      </trkpt>
      <trkpt lat="44.60816" lon="0.37736">
        <ele>75.474344</ele>
        <time>2022-07-11T15:58:58.647Z</time>
      </trkpt>
      <trkpt lat="44.60814" lon="0.37765">
        <ele>76.015461</ele>
        <time>2022-07-11T15:59:03.999Z</time>
      </trkpt>
      <trkpt lat="44.60805" lon="0.37832">
        <ele>77.243152</ele>
        <time>2022-07-11T15:59:17.266Z</time>
      </trkpt>
      <trkpt lat="44.60802" lon="0.37841">
        <ele>77.422247</ele>
        <time>2022-07-11T15:59:19.230Z</time>
      </trkpt>
      <trkpt lat="44.608" lon="0.37848">
        <ele>77.55802</ele>
        <time>2022-07-11T15:59:20.956Z</time>
      </trkpt>
      <trkpt lat="44.60784" lon="0.37888">
        <ele>78.38727</ele>
        <time>2022-07-11T15:59:31.318Z</time>
      </trkpt>
      <trkpt lat="44.60766" lon="0.37933">
        <ele>79.315386</ele>
        <time>2022-07-11T15:59:44.423Z</time>
      </trkpt>
      <trkpt lat="44.60738" lon="0.37994">
        <ele>80.638086</ele>
        <time>2022-07-11T16:00:01.903Z</time>
      </trkpt>
      <trkpt lat="44.60689" lon="0.38077">
        <ele>82.579417</ele>
        <time>2022-07-11T16:00:24.508Z</time>
      </trkpt>
      <trkpt lat="44.60686" lon="0.38081">
        <ele>82.674985</ele>
        <time>2022-07-11T16:00:25.493Z</time>
      </trkpt>
      <trkpt lat="44.60655" lon="0.38135">
        <ele>83.640976</ele>
        <time>2022-07-11T16:00:35.508Z</time>
      </trkpt>
      <trkpt lat="44.60616" lon="0.382">
        <ele>83.119185</ele>
        <time>2022-07-11T16:00:45.735Z</time>
      </trkpt>
      <trkpt lat="44.6058" lon="0.38262">
        <ele>82.62532</ele>
        <time>2022-07-11T16:00:54.463Z</time>
      </trkpt>
      <trkpt lat="44.6057" lon="0.38306">
        <ele>82.340553</ele>
        <time>2022-07-11T16:00:59.386Z</time>
      </trkpt>
      <trkpt lat="44.6057" lon="0.3835">
        <ele>82.195082</ele>
        <time>2022-07-11T16:01:04.010Z</time>
      </trkpt>
      <trkpt lat="44.60574" lon="0.38378">
        <ele>82.267345</ele>
        <time>2022-07-11T16:01:07.095Z</time>
      </trkpt>
      <trkpt lat="44.60603" lon="0.3844">
        <ele>82.454508</ele>
        <time>2022-07-11T16:01:15.465Z</time>
      </trkpt>
      <trkpt lat="44.60637" lon="0.38505">
        <ele>82.655211</ele>
        <time>2022-07-11T16:01:28.904Z</time>
      </trkpt>
      <trkpt lat="44.60653" lon="0.38561">
        <ele>82.866462</ele>
        <time>2022-07-11T16:01:40.927Z</time>
      </trkpt>
      <trkpt lat="44.60673" lon="0.38643">
        <ele>84.107667</ele>
        <time>2022-07-11T16:01:57.144Z</time>
      </trkpt>
      <trkpt lat="44.60684" lon="0.3871">
        <ele>85.1007</ele>
        <time>2022-07-11T16:02:09.708Z</time>
      </trkpt>
      <trkpt lat="44.60687" lon="0.38728">
        <ele>85.355854</ele>
        <time>2022-07-11T16:02:12.859Z</time>
      </trkpt>
      <trkpt lat="44.60693" lon="0.38766">
        <ele>85.917868</ele>
        <time>2022-07-11T16:02:20.169Z</time>
      </trkpt>
      <trkpt lat="44.60697" lon="0.38793">
        <ele>86.316641</ele>
        <time>2022-07-11T16:02:25.246Z</time>
      </trkpt>
      <trkpt lat="44.60706" lon="0.3886">
        <ele>86.963154</ele>
        <time>2022-07-11T16:02:37.511Z</time>
      </trkpt>
      <trkpt lat="44.60711" lon="0.38895">
        <ele>87.285282</ele>
        <time>2022-07-11T16:02:43.270Z</time>
      </trkpt>
      <trkpt lat="44.60712" lon="0.38906">
        <ele>87.381561</ele>
        <time>2022-07-11T16:02:45.098Z</time>
      </trkpt>
      <trkpt lat="44.60715" lon="0.38937">
        <ele>87.661692</ele>
        <time>2022-07-11T16:02:49.445Z</time>
      </trkpt>
      <trkpt lat="44.60722" lon="0.3902">
        <ele>88.414547</ele>
        <time>2022-07-11T16:03:01.730Z</time>
      </trkpt>
      <trkpt lat="44.60725" lon="0.39062">
        <ele>88.844487</ele>
        <time>2022-07-11T16:03:08.656Z</time>
      </trkpt>
      <trkpt lat="44.60728" lon="0.39107">
        <ele>89.421659</ele>
        <time>2022-07-11T16:03:16.601Z</time>
      </trkpt>
      <trkpt lat="44.6073" lon="0.39133">
        <ele>89.767371</ele>
        <time>2022-07-11T16:03:21.521Z</time>
      </trkpt>
      <trkpt lat="44.60731" lon="0.39142">
        <ele>89.880344</ele>
        <time>2022-07-11T16:03:23.171Z</time>
      </trkpt>
      <trkpt lat="44.60736" lon="0.39229">
        <ele>91.007027</ele>
        <time>2022-07-11T16:03:39.799Z</time>
      </trkpt>
      <trkpt lat="44.60746" lon="0.39446">
        <ele>93.611978</ele>
        <time>2022-07-11T16:04:17.692Z</time>
      </trkpt>
      <trkpt lat="44.60752" lon="0.39561">
        <ele>94.91412</ele>
        <time>2022-07-11T16:04:37.471Z</time>
      </trkpt>
      <trkpt lat="44.60752" lon="0.39569">
        <ele>94.977787</ele>
        <time>2022-07-11T16:04:38.840Z</time>
      </trkpt>
      <trkpt lat="44.60753" lon="0.3959">
        <ele>95.144983</ele>
        <time>2022-07-11T16:04:42.466Z</time>
      </trkpt>
      <trkpt lat="44.60754" lon="0.3965">
        <ele>95.616323</ele>
        <time>2022-07-11T16:04:52.007Z</time>
      </trkpt>
      <trkpt lat="44.60749" lon="0.39691">
        <ele>95.93912</ele>
        <time>2022-07-11T16:04:58.444Z</time>
      </trkpt>
      <trkpt lat="44.60721" lon="0.39887">
        <ele>97.73667</ele>
        <time>2022-07-11T16:05:28.961Z</time>
      </trkpt>
      <trkpt lat="44.60724" lon="0.39953">
        <ele>98.430384</ele>
        <time>2022-07-11T16:05:38.588Z</time>
      </trkpt>
      <trkpt lat="44.60772" lon="0.40079">
        <ele>100.642135</ele>
        <time>2022-07-11T16:06:06.041Z</time>
      </trkpt>
      <trkpt lat="44.6079" lon="0.40112">
        <ele>101.75031</ele>
        <time>2022-07-11T16:06:15.622Z</time>
      </trkpt>
      <trkpt lat="44.60842" lon="0.40182">
        <ele>104.476141</ele>
        <time>2022-07-11T16:06:40.437Z</time>
      </trkpt>
      <trkpt lat="44.6087" lon="0.40214">
        <ele>105.87603</ele>
        <time>2022-07-11T16:06:53.464Z</time>
      </trkpt>
      <trkpt lat="44.60912" lon="0.40246">
        <ele>107.774553</ele>
        <time>2022-07-11T16:07:10.524Z</time>
      </trkpt>
      <trkpt lat="44.60933" lon="0.40272">
        <ele>108.91525</ele>
        <time>2022-07-11T16:07:20.997Z</time>
      </trkpt>
      <trkpt lat="44.60987" lon="0.40391">
        <ele>113.030573</ele>
        <time>2022-07-11T16:07:55.612Z</time>
      </trkpt>
      <trkpt lat="44.61033" lon="0.40454">
        <ele>114.907597</ele>
        <time>2022-07-11T16:08:14.519Z</time>
      </trkpt>
      <trkpt lat="44.61099" lon="0.40512">
        <ele>116.870648</ele>
        <time>2022-07-11T16:08:36.652Z</time>
      </trkpt>
      <trkpt lat="44.61189" lon="0.40583">
        <ele>118.804392</ele>
        <time>2022-07-11T16:09:01.895Z</time>
      </trkpt>
      <trkpt lat="44.61298" lon="0.40666">
        <ele>120.297537</ele>
        <time>2022-07-11T16:09:28.819Z</time>
      </trkpt>
      <trkpt lat="44.6134" lon="0.40704">
        <ele>120.755908</ele>
        <time>2022-07-11T16:09:39.591Z</time>
      </trkpt>
      <trkpt lat="44.6137" lon="0.4074">
        <ele>121.102808</ele>
        <time>2022-07-11T16:09:48.110Z</time>
      </trkpt>
      <trkpt lat="44.614" lon="0.40798">
        <ele>121.554048</ele>
        <time>2022-07-11T16:09:59.328Z</time>
      </trkpt>
      <trkpt lat="44.61418" lon="0.40853">
        <ele>121.93275</ele>
        <time>2022-07-11T16:10:08.828Z</time>
      </trkpt>
      <trkpt lat="44.61422" lon="0.40867">
        <ele>121.865482</ele>
        <time>2022-07-11T16:10:11.186Z</time>
      </trkpt>
      <trkpt lat="44.61444" lon="0.40966">
        <ele>120.982139</ele>
        <time>2022-07-11T16:10:23.865Z</time>
      </trkpt>
      <trkpt lat="44.61454" lon="0.41069">
        <ele>120.088796</ele>
        <time>2022-07-11T16:10:35.131Z</time>
      </trkpt>
      <trkpt lat="44.61445" lon="0.41288">
        <ele>114.918783</ele>
        <time>2022-07-11T16:10:56.113Z</time>
      </trkpt>
      <trkpt lat="44.61446" lon="0.41328">
        <ele>113.888312</ele>
        <time>2022-07-11T16:10:59.732Z</time>
      </trkpt>
      <trkpt lat="44.61456" lon="0.41362">
        <ele>112.880537</ele>
        <time>2022-07-11T16:11:03.165Z</time>
      </trkpt>
      <trkpt lat="44.61471" lon="0.41393">
        <ele>111.737635</ele>
        <time>2022-07-11T16:11:06.594Z</time>
      </trkpt>
      <trkpt lat="44.61503" lon="0.41434">
        <ele>109.863942</ele>
        <time>2022-07-11T16:11:12.160Z</time>
      </trkpt>
      <trkpt lat="44.61509" lon="0.41441">
        <ele>109.529708</ele>
        <time>2022-07-11T16:11:13.142Z</time>
      </trkpt>
      <trkpt lat="44.61555" lon="0.41502">
        <ele>106.783072</ele>
        <time>2022-07-11T16:11:21.443Z</time>
      </trkpt>
      <trkpt lat="44.6158" lon="0.41553">
        <ele>104.975107</ele>
        <time>2022-07-11T16:11:27.340Z</time>
      </trkpt>
      <trkpt lat="44.61596" lon="0.41618">
        <ele>103.246867</ele>
        <time>2022-07-11T16:11:33.864Z</time>
      </trkpt>
      <trkpt lat="44.61615" lon="0.41695">
        <ele>101.193723</ele>
        <time>2022-07-11T16:11:41.670Z</time>
      </trkpt>
      <trkpt lat="44.61628" lon="0.41725">
        <ele>100.293002</ele>
        <time>2022-07-11T16:11:45.030Z</time>
      </trkpt>
      <trkpt lat="44.61631" lon="0.41732">
        <ele>100.074084</ele>
        <time>2022-07-11T16:11:45.863Z</time>
      </trkpt>
      <trkpt lat="44.61681" lon="0.41833">
        <ele>97.322652</ele>
        <time>2022-07-11T16:11:57.681Z</time>
      </trkpt>
      <trkpt lat="44.6173" lon="0.41934">
        <ele>94.75467</ele>
        <time>2022-07-11T16:12:09.795Z</time>
      </trkpt>
      <trkpt lat="44.61757" lon="0.41988">
        <ele>93.479995</ele>
        <time>2022-07-11T16:12:16.505Z</time>
      </trkpt>
      <trkpt lat="44.61766" lon="0.42007">
        <ele>93.153099</ele>
        <time>2022-07-11T16:12:18.799Z</time>
      </trkpt>
      <trkpt lat="44.61799" lon="0.42073">
        <ele>91.988445</ele>
        <time>2022-07-11T16:12:26.981Z</time>
      </trkpt>
      <trkpt lat="44.61842" lon="0.42162">
        <ele>90.430505</ele>
        <time>2022-07-11T16:12:38.529Z</time>
      </trkpt>
      <trkpt lat="44.61918" lon="0.42316">
        <ele>88.707039</ele>
        <time>2022-07-11T16:12:58.454Z</time>
      </trkpt>
      <trkpt lat="44.62011" lon="0.42508">
        <ele>89.603094</ele>
        <time>2022-07-11T16:13:27.498Z</time>
      </trkpt>
      <trkpt lat="44.6211" lon="0.42709">
        <ele>93.808567</ele>
        <time>2022-07-11T16:14:25.570Z</time>
      </trkpt>
      <trkpt lat="44.62112" lon="0.42712">
        <ele>93.876003</ele>
        <time>2022-07-11T16:14:26.319Z</time>
      </trkpt>
      <trkpt lat="44.62135" lon="0.42759">
        <ele>95.136016</ele>
        <time>2022-07-11T16:14:38.790Z</time>
      </trkpt>
      <trkpt lat="44.62154" lon="0.42798">
        <ele>96.144035</ele>
        <time>2022-07-11T16:14:47.446Z</time>
      </trkpt>
      <trkpt lat="44.62178" lon="0.42863">
        <ele>96.113044</ele>
        <time>2022-07-11T16:14:58.763Z</time>
      </trkpt>
      <trkpt lat="44.62189" lon="0.42961">
        <ele>95.661837</ele>
        <time>2022-07-11T16:15:10.404Z</time>
      </trkpt>
      <trkpt lat="44.62199" lon="0.43046">
        <ele>95.274705</ele>
        <time>2022-07-11T16:15:19.279Z</time>
      </trkpt>
      <trkpt lat="44.62205" lon="0.43101">
        <ele>94.599812</ele>
        <time>2022-07-11T16:15:24.946Z</time>
      </trkpt>
      <trkpt lat="44.62227" lon="0.43296">
        <ele>92.071775</ele>
        <time>2022-07-11T16:15:45.621Z</time>
      </trkpt>
      <trkpt lat="44.6225" lon="0.43522">
        <ele>91.488422</ele>
        <time>2022-07-11T16:16:13.360Z</time>
      </trkpt>
      <trkpt lat="44.6225" lon="0.43533">
        <ele>91.462725</ele>
        <time>2022-07-11T16:16:15.006Z</time>
      </trkpt>
      <trkpt lat="44.6225" lon="0.4354">
        <ele>91.446343</ele>
        <time>2022-07-11T16:16:16.033Z</time>
      </trkpt>
      <trkpt lat="44.62248" lon="0.43559">
        <ele>91.485024</ele>
        <time>2022-07-11T16:16:18.685Z</time>
      </trkpt>
      <trkpt lat="44.62224" lon="0.43708">
        <ele>92.649776</ele>
        <time>2022-07-11T16:16:41.558Z</time>
      </trkpt>
      <trkpt lat="44.62227" lon="0.43733">
        <ele>92.846922</ele>
        <time>2022-07-11T16:16:45.772Z</time>
      </trkpt>
      <trkpt lat="44.62245" lon="0.43781">
        <ele>93.262954</ele>
        <time>2022-07-11T16:16:55.102Z</time>
      </trkpt>
      <trkpt lat="44.62377" lon="0.44108">
        <ele>98.395026</ele>
        <time>2022-07-11T16:18:07.002Z</time>
      </trkpt>
      <trkpt lat="44.6239" lon="0.44139">
        <ele>98.745694</ele>
        <time>2022-07-11T16:18:13.293Z</time>
      </trkpt>
      <trkpt lat="44.62547" lon="0.44531">
        <ele>99.34815</ele>
        <time>2022-07-11T16:19:15.269Z</time>
      </trkpt>
      <trkpt lat="44.62563" lon="0.44582">
        <ele>98.649984</ele>
        <time>2022-07-11T16:19:21.086Z</time>
      </trkpt>
      <trkpt lat="44.6258" lon="0.44651">
        <ele>97.732067</ele>
        <time>2022-07-11T16:19:28.313Z</time>
      </trkpt>
      <trkpt lat="44.6259" lon="0.44695">
        <ele>96.839501</ele>
        <time>2022-07-11T16:19:32.739Z</time>
      </trkpt>
      <trkpt lat="44.62605" lon="0.44763">
        <ele>94.382843</ele>
        <time>2022-07-11T16:19:39.227Z</time>
      </trkpt>
      <trkpt lat="44.62634" lon="0.44893">
        <ele>89.673272</ele>
        <time>2022-07-11T16:19:51.382Z</time>
      </trkpt>
      <trkpt lat="44.62641" lon="0.4492">
        <ele>88.675003</ele>
        <time>2022-07-11T16:19:53.930Z</time>
      </trkpt>
      <trkpt lat="44.62644" lon="0.44931">
        <ele>88.360869</ele>
        <time>2022-07-11T16:19:54.992Z</time>
      </trkpt>
      <trkpt lat="44.62671" lon="0.45052">
        <ele>85.278604</ele>
        <time>2022-07-11T16:20:06.774Z</time>
      </trkpt>
      <trkpt lat="44.62683" lon="0.45104">
        <ele>83.962107</ele>
        <time>2022-07-11T16:20:12.027Z</time>
      </trkpt>
      <trkpt lat="44.62734" lon="0.45328">
        <ele>82.274766</ele>
        <time>2022-07-11T16:20:38.390Z</time>
      </trkpt>
      <trkpt lat="44.62751" lon="0.45402">
        <ele>82.191011</ele>
        <time>2022-07-11T16:20:51.534Z</time>
      </trkpt>
      <trkpt lat="44.62752" lon="0.45405">
        <ele>82.214559</ele>
        <time>2022-07-11T16:20:52.139Z</time>
      </trkpt>
      <trkpt lat="44.6279" lon="0.45573">
        <ele>85.059705</ele>
        <time>2022-07-11T16:21:27.612Z</time>
      </trkpt>
      <trkpt lat="44.62809" lon="0.45659">
        <ele>86.596782</ele>
        <time>2022-07-11T16:21:43.877Z</time>
      </trkpt>
      <trkpt lat="44.62829" lon="0.45709">
        <ele>87.849227</ele>
        <time>2022-07-11T16:21:54.868Z</time>
      </trkpt>
      <trkpt lat="44.62827" lon="0.45727">
        <ele>88.237231</ele>
        <time>2022-07-11T16:21:58.601Z</time>
      </trkpt>
      <trkpt lat="44.6283" lon="0.45748">
        <ele>88.710383</ele>
        <time>2022-07-11T16:22:03.299Z</time>
      </trkpt>
      <trkpt lat="44.62844" lon="0.45793">
        <ele>89.7824</ele>
        <time>2022-07-11T16:22:14.537Z</time>
      </trkpt>
      <trkpt lat="44.6285" lon="0.45803">
        <ele>90.050763</ele>
        <time>2022-07-11T16:22:17.508Z</time>
      </trkpt>
      <trkpt lat="44.62858" lon="0.45812">
        <ele>90.380556</ele>
        <time>2022-07-11T16:22:21.158Z</time>
      </trkpt>
      <trkpt lat="44.62877" lon="0.45835">
        <ele>91.142798</ele>
        <time>2022-07-11T16:22:29.189Z</time>
      </trkpt>
      <trkpt lat="44.62906" lon="0.45871">
        <ele>92.271931</ele>
        <time>2022-07-11T16:22:41.741Z</time>
      </trkpt>
      <trkpt lat="44.62921" lon="0.45889">
        <ele>92.778261</ele>
        <time>2022-07-11T16:22:48.148Z</time>
      </trkpt>
      <trkpt lat="44.62945" lon="0.45917">
        <ele>93.618479</ele>
        <time>2022-07-11T16:22:58.940Z</time>
      </trkpt>
      <trkpt lat="44.62962" lon="0.45946">
        <ele>94.335368</ele>
        <time>2022-07-11T16:23:07.818Z</time>
      </trkpt>
      <trkpt lat="44.62966" lon="0.45957">
        <ele>94.569863</ele>
        <time>2022-07-11T16:23:10.739Z</time>
      </trkpt>
      <trkpt lat="44.62969" lon="0.45973">
        <ele>94.88633</ele>
        <time>2022-07-11T16:23:14.210Z</time>
      </trkpt>
      <trkpt lat="44.62962" lon="0.46083">
        <ele>96.402567</ele>
        <time>2022-07-11T16:23:34.264Z</time>
      </trkpt>
      <trkpt lat="44.62961" lon="0.46099">
        <ele>96.264062</ele>
        <time>2022-07-11T16:23:36.570Z</time>
      </trkpt>
      <trkpt lat="44.63014" lon="0.4613">
        <ele>95.569671</ele>
        <time>2022-07-11T16:23:45.625Z</time>
      </trkpt>
      <trkpt lat="44.63015" lon="0.46147">
        <ele>95.419261</ele>
        <time>2022-07-11T16:23:47.525Z</time>
      </trkpt>
      <trkpt lat="44.63047" lon="0.46249">
        <ele>94.465142</ele>
        <time>2022-07-11T16:23:58.795Z</time>
      </trkpt>
      <trkpt lat="44.63056" lon="0.46275">
        <ele>94.39025</ele>
        <time>2022-07-11T16:24:01.626Z</time>
      </trkpt>
      <trkpt lat="44.63233" lon="0.46796">
        <ele>95.271807</ele>
        <time>2022-07-11T16:25:20.437Z</time>
      </trkpt>
      <trkpt lat="44.63279" lon="0.46927">
        <ele>96.054224</ele>
        <time>2022-07-11T16:25:42.861Z</time>
      </trkpt>
      <trkpt lat="44.63327" lon="0.47064">
        <ele>97.10619</ele>
        <time>2022-07-11T16:26:07.427Z</time>
      </trkpt>
      <trkpt lat="44.6341" lon="0.47297">
        <ele>97.86967</ele>
        <time>2022-07-11T16:26:46.788Z</time>
      </trkpt>
      <trkpt lat="44.63573" lon="0.47759">
        <ele>95.088759</ele>
        <time>2022-07-11T16:27:43.740Z</time>
      </trkpt>
      <trkpt lat="44.63582" lon="0.47784">
        <ele>94.994269</ele>
        <time>2022-07-11T16:27:47.378Z</time>
      </trkpt>
      <trkpt lat="44.63804" lon="0.48399">
        <ele>98.074492</ele>
        <time>2022-07-11T16:29:35.862Z</time>
      </trkpt>
      <trkpt lat="44.63808" lon="0.4841">
        <ele>98.024058</ele>
        <time>2022-07-11T16:29:37.121Z</time>
      </trkpt>
      <trkpt lat="44.63875" lon="0.48612">
        <ele>96.366671</ele>
        <time>2022-07-11T16:30:00.244Z</time>
      </trkpt>
      <trkpt lat="44.63958" lon="0.48844">
        <ele>94.424172</ele>
        <time>2022-07-11T16:30:28.959Z</time>
      </trkpt>
      <trkpt lat="44.64132" lon="0.49325">
        <ele>93.012801</ele>
        <time>2022-07-11T16:31:36.789Z</time>
      </trkpt>
      <trkpt lat="44.64255" lon="0.49677">
        <ele>90.183773</ele>
        <time>2022-07-11T16:32:20.618Z</time>
      </trkpt>
      <trkpt lat="44.64324" lon="0.49876">
        <ele>87.7896</ele>
        <time>2022-07-11T16:32:44.693Z</time>
      </trkpt>
      <trkpt lat="44.64675" lon="0.50883">
        <ele>70.50863</ele>
        <time>2022-07-11T16:34:39.069Z</time>
      </trkpt>
      <trkpt lat="44.64881" lon="0.51476">
        <ele>68.44848</ele>
        <time>2022-07-11T16:36:00.450Z</time>
      </trkpt>
      <trkpt lat="44.64887" lon="0.51495">
        <ele>68.513209</ele>
        <time>2022-07-11T16:36:03.286Z</time>
      </trkpt>
      <trkpt lat="44.65067" lon="0.52009">
        <ele>71.13422</ele>
        <time>2022-07-11T16:37:25.024Z</time>
      </trkpt>
      <trkpt lat="44.65179" lon="0.52332">
        <ele>77.028494</ele>
        <time>2022-07-11T16:38:28.736Z</time>
      </trkpt>
      <trkpt lat="44.65287" lon="0.52642">
        <ele>93.081934</ele>
        <time>2022-07-11T16:40:21.441Z</time>
      </trkpt>
      <trkpt lat="44.65355" lon="0.52836">
        <ele>105.994928</ele>
        <time>2022-07-11T16:41:46.556Z</time>
      </trkpt>
      <trkpt lat="44.65356" lon="0.52862">
        <ele>106.84739</ele>
        <time>2022-07-11T16:41:55.245Z</time>
      </trkpt>
      <trkpt lat="44.65344" lon="0.52887">
        <ele>107.818078</ele>
        <time>2022-07-11T16:42:04.623Z</time>
      </trkpt>
      <trkpt lat="44.65329" lon="0.5289">
        <ele>108.50232</ele>
        <time>2022-07-11T16:42:10.630Z</time>
      </trkpt>
      <trkpt lat="44.65281" lon="0.52882">
        <ele>110.708938</ele>
        <time>2022-07-11T16:42:27.673Z</time>
      </trkpt>
      <trkpt lat="44.65245" lon="0.52889">
        <ele>112.381615</ele>
        <time>2022-07-11T16:42:38.354Z</time>
      </trkpt>
      <trkpt lat="44.65214" lon="0.52916">
        <ele>114.040011</ele>
        <time>2022-07-11T16:42:47.172Z</time>
      </trkpt>
      <trkpt lat="44.65204" lon="0.52937">
        <ele>114.614115</ele>
        <time>2022-07-11T16:42:51.340Z</time>
      </trkpt>
      <trkpt lat="44.65192" lon="0.53017">
        <ele>116.508755</ele>
        <time>2022-07-11T16:43:05.918Z</time>
      </trkpt>
      <trkpt lat="44.65176" lon="0.5318">
        <ele>120.399221</ele>
        <time>2022-07-11T16:43:46.834Z</time>
      </trkpt>
      <trkpt lat="44.65179" lon="0.53203">
        <ele>121.058476</ele>
        <time>2022-07-11T16:43:52.913Z</time>
      </trkpt>
      <trkpt lat="44.65189" lon="0.53222">
        <ele>121.697872</ele>
        <time>2022-07-11T16:43:58.916Z</time>
      </trkpt>
      <trkpt lat="44.65245" lon="0.53263">
        <ele>124.153185</ele>
        <time>2022-07-11T16:44:21.294Z</time>
      </trkpt>
      <trkpt lat="44.65288" lon="0.53311">
        <ele>126.27911</ele>
        <time>2022-07-11T16:44:39.018Z</time>
      </trkpt>
      <trkpt lat="44.65382" lon="0.53453">
        <ele>129.64277</ele>
        <time>2022-07-11T16:45:16.543Z</time>
      </trkpt>
      <trkpt lat="44.6552" lon="0.53697">
        <ele>133.534817</ele>
        <time>2022-07-11T16:46:10.761Z</time>
      </trkpt>
      <trkpt lat="44.65569" lon="0.53823">
        <ele>134.635992</ele>
        <time>2022-07-11T16:46:33.444Z</time>
      </trkpt>
      <trkpt lat="44.65581" lon="0.53876">
        <ele>135.031558</ele>
        <time>2022-07-11T16:46:41.865Z</time>
      </trkpt>
      <trkpt lat="44.65585" lon="0.5392">
        <ele>135.352931</ele>
        <time>2022-07-11T16:46:48.664Z</time>
      </trkpt>
      <trkpt lat="44.65584" lon="0.53995">
        <ele>135.716847</ele>
        <time>2022-07-11T16:47:00.079Z</time>
      </trkpt>
      <trkpt lat="44.65573" lon="0.54208">
        <ele>136.422993</ele>
        <time>2022-07-11T16:47:29.914Z</time>
      </trkpt>
      <trkpt lat="44.65571" lon="0.54227">
        <ele>136.3691</ele>
        <time>2022-07-11T16:47:32.550Z</time>
      </trkpt>
      <trkpt lat="44.65534" lon="0.54738">
        <ele>133.794952</ele>
        <time>2022-07-11T16:48:33.036Z</time>
      </trkpt>
      <trkpt lat="44.65536" lon="0.54797">
        <ele>132.73594</ele>
        <time>2022-07-11T16:48:39.077Z</time>
      </trkpt>
      <trkpt lat="44.65569" lon="0.55041">
        <ele>128.737664</ele>
        <time>2022-07-11T16:49:03.273Z</time>
      </trkpt>
      <trkpt lat="44.65604" lon="0.55305">
        <ele>126.76964</ele>
        <time>2022-07-11T16:49:33.239Z</time>
      </trkpt>
      <trkpt lat="44.65644" lon="0.55585">
        <ele>128.245015</ele>
        <time>2022-07-11T16:50:19.961Z</time>
      </trkpt>
      <trkpt lat="44.65664" lon="0.55754">
        <ele>129.082261</ele>
        <time>2022-07-11T16:50:47.463Z</time>
      </trkpt>
      <trkpt lat="44.65666" lon="0.55773">
        <ele>129.021814</ele>
        <time>2022-07-11T16:50:50.350Z</time>
      </trkpt>
      <trkpt lat="44.65672" lon="0.55821">
        <ele>128.871874</ele>
        <time>2022-07-11T16:50:56.448Z</time>
      </trkpt>
      <trkpt lat="44.65687" lon="0.55926">
        <ele>128.542847</ele>
        <time>2022-07-11T16:51:08.711Z</time>
      </trkpt>
      <trkpt lat="44.65687" lon="0.55967">
        <ele>127.920246</ele>
        <time>2022-07-11T16:51:13.233Z</time>
      </trkpt>
      <trkpt lat="44.65644" lon="0.56173">
        <ele>121.64918</ele>
        <time>2022-07-11T16:51:33.205Z</time>
      </trkpt>
      <trkpt lat="44.6564" lon="0.56226">
        <ele>119.49658</ele>
        <time>2022-07-11T16:51:37.816Z</time>
      </trkpt>
      <trkpt lat="44.65642" lon="0.56275">
        <ele>117.253209</ele>
        <time>2022-07-11T16:51:41.905Z</time>
      </trkpt>
      <trkpt lat="44.65665" lon="0.56473">
        <ele>108.472789</ele>
        <time>2022-07-11T16:51:59.154Z</time>
      </trkpt>
      <trkpt lat="44.65644" lon="0.56653">
        <ele>102.992103</ele>
        <time>2022-07-11T16:52:16.164Z</time>
      </trkpt>
      <trkpt lat="44.65506" lon="0.57547">
        <ele>87.691355</ele>
        <time>2022-07-11T16:53:50.579Z</time>
      </trkpt>
      <trkpt lat="44.65511" lon="0.57651">
        <ele>85.720296</ele>
        <time>2022-07-11T16:54:00.964Z</time>
      </trkpt>
      <trkpt lat="44.65592" lon="0.5811">
        <ele>74.56523</ele>
        <time>2022-07-11T16:54:45.894Z</time>
      </trkpt>
      <trkpt lat="44.65645" lon="0.58395">
        <ele>72.690968</ele>
        <time>2022-07-11T16:55:19.202Z</time>
      </trkpt>
      <trkpt lat="44.65653" lon="0.58441">
        <ele>73.188856</ele>
        <time>2022-07-11T16:55:28.947Z</time>
      </trkpt>
      <trkpt lat="44.65655" lon="0.58453">
        <ele>73.465483</ele>
        <time>2022-07-11T16:55:31.466Z</time>
      </trkpt>
      <trkpt lat="44.65675" lon="0.5857">
        <ele>76.279935</ele>
        <time>2022-07-11T16:55:59.695Z</time>
      </trkpt>
      <trkpt lat="44.65681" lon="0.58607">
        <ele>77.142207</ele>
        <time>2022-07-11T16:56:08.577Z</time>
      </trkpt>
      <trkpt lat="44.65695" lon="0.58688">
        <ele>79.100417</ele>
        <time>2022-07-11T16:56:29.073Z</time>
      </trkpt>
      <trkpt lat="44.65736" lon="0.58914">
        <ele>84.646813</ele>
        <time>2022-07-11T16:57:18.537Z</time>
      </trkpt>
      <trkpt lat="44.65764" lon="0.58972">
        <ele>87.133479</ele>
        <time>2022-07-11T16:57:34.124Z</time>
      </trkpt>
      <trkpt lat="44.65719" lon="0.59012">
        <ele>89.790981</ele>
        <time>2022-07-11T16:57:56.124Z</time>
      </trkpt>
      <trkpt lat="44.6568" lon="0.59029">
        <ele>91.806734</ele>
        <time>2022-07-11T16:58:13.628Z</time>
      </trkpt>
      <trkpt lat="44.65648" lon="0.59032">
        <ele>93.430511</ele>
        <time>2022-07-11T16:58:27.567Z</time>
      </trkpt>
      <trkpt lat="44.65621" lon="0.59027">
        <ele>94.108621</ele>
        <time>2022-07-11T16:58:38.060Z</time>
      </trkpt>
      <trkpt lat="44.65602" lon="0.59018">
        <ele>94.592939</ele>
        <time>2022-07-11T16:58:44.817Z</time>
      </trkpt>
      <trkpt lat="44.6558" lon="0.58997">
        <ele>95.245704</ele>
        <time>2022-07-11T16:58:54.227Z</time>
      </trkpt>
      <trkpt lat="44.65558" lon="0.59106">
        <ele>97.231794</ele>
        <time>2022-07-11T16:59:12.263Z</time>
      </trkpt>
      <trkpt lat="44.65557" lon="0.59113">
        <ele>97.34989</ele>
        <time>2022-07-11T16:59:13.306Z</time>
      </trkpt>
      <trkpt lat="44.65536" lon="0.5922">
        <ele>96.829651</ele>
        <time>2022-07-11T16:59:26.927Z</time>
      </trkpt>
      <trkpt lat="44.65519" lon="0.59318">
        <ele>95.543995</ele>
        <time>2022-07-11T16:59:36.817Z</time>
      </trkpt>
      <trkpt lat="44.65522" lon="0.59359">
        <ele>95.016889</ele>
        <time>2022-07-11T16:59:40.933Z</time>
      </trkpt>
      <trkpt lat="44.65533" lon="0.59409">
        <ele>94.319677</ele>
        <time>2022-07-11T16:59:46.221Z</time>
      </trkpt>
      <trkpt lat="44.65565" lon="0.59464">
        <ele>93.31246</ele>
        <time>2022-07-11T16:59:53.747Z</time>
      </trkpt>
      <trkpt lat="44.65653" lon="0.59569">
        <ele>91.004223</ele>
        <time>2022-07-11T17:00:10.812Z</time>
      </trkpt>
      <trkpt lat="44.65697" lon="0.5961">
        <ele>90.000921</ele>
        <time>2022-07-11T17:00:18.677Z</time>
      </trkpt>
      <trkpt lat="44.65719" lon="0.59629">
        <ele>89.513535</ele>
        <time>2022-07-11T17:00:22.558Z</time>
      </trkpt>
      <trkpt lat="44.65832" lon="0.59725">
        <ele>86.797805</ele>
        <time>2022-07-11T17:00:42.253Z</time>
      </trkpt>
      <trkpt lat="44.65873" lon="0.59774">
        <ele>85.44617</ele>
        <time>2022-07-11T17:00:49.785Z</time>
      </trkpt>
      <trkpt lat="44.65899" lon="0.59816">
        <ele>84.438801</ele>
        <time>2022-07-11T17:00:55.298Z</time>
      </trkpt>
      <trkpt lat="44.6603" lon="0.60047">
        <ele>78.996053</ele>
        <time>2022-07-11T17:01:24.465Z</time>
      </trkpt>
      <trkpt lat="44.66063" lon="0.60087">
        <ele>78.165683</ele>
        <time>2022-07-11T17:01:31.052Z</time>
      </trkpt>
      <trkpt lat="44.6608" lon="0.60203">
        <ele>77.259242</ele>
        <time>2022-07-11T17:01:44.846Z</time>
      </trkpt>
      <trkpt lat="44.66091" lon="0.6056">
        <ele>75.628498</ele>
        <time>2022-07-11T17:02:29.261Z</time>
      </trkpt>
      <trkpt lat="44.66126" lon="0.60838">
        <ele>74.942045</ele>
        <time>2022-07-11T17:03:05.038Z</time>
      </trkpt>
      <trkpt lat="44.66143" lon="0.60968">
        <ele>74.659566</ele>
        <time>2022-07-11T17:03:22.202Z</time>
      </trkpt>
      <trkpt lat="44.66179" lon="0.61103">
        <ele>74.220687</ele>
        <time>2022-07-11T17:03:40.227Z</time>
      </trkpt>
      <trkpt lat="44.66196" lon="0.61166">
        <ele>73.909782</ele>
        <time>2022-07-11T17:03:48.400Z</time>
      </trkpt>
      <trkpt lat="44.6621" lon="0.61219">
        <ele>73.646136</ele>
        <time>2022-07-11T17:03:55.249Z</time>
      </trkpt>
      <trkpt lat="44.66256" lon="0.61472">
        <ele>72.338368</ele>
        <time>2022-07-11T17:04:26.928Z</time>
      </trkpt>
      <trkpt lat="44.66248" lon="0.61583">
        <ele>71.770235</ele>
        <time>2022-07-11T17:04:40.540Z</time>
      </trkpt>
      <trkpt lat="44.66248" lon="0.61657">
        <ele>71.39803</ele>
        <time>2022-07-11T17:04:49.528Z</time>
      </trkpt>
      <trkpt lat="44.6626" lon="0.61746">
        <ele>70.944249</ele>
        <time>2022-07-11T17:05:00.512Z</time>
      </trkpt>
      <trkpt lat="44.66264" lon="0.61808">
        <ele>70.685519</ele>
        <time>2022-07-11T17:05:07.951Z</time>
      </trkpt>
      <trkpt lat="44.66273" lon="0.61853">
        <ele>70.592274</ele>
        <time>2022-07-11T17:05:13.716Z</time>
      </trkpt>
      <trkpt lat="44.66315" lon="0.61962">
        <ele>70.34705</ele>
        <time>2022-07-11T17:05:29.437Z</time>
      </trkpt>
      <trkpt lat="44.6632" lon="0.61975">
        <ele>70.317064</ele>
        <time>2022-07-11T17:05:31.359Z</time>
      </trkpt>
      <trkpt lat="44.66348" lon="0.62068">
        <ele>70.490538</ele>
        <time>2022-07-11T17:05:45.102Z</time>
      </trkpt>
      <trkpt lat="44.66357" lon="0.62182">
        <ele>71.111195</ele>
        <time>2022-07-11T17:06:02.417Z</time>
      </trkpt>
      <trkpt lat="44.66347" lon="0.62383">
        <ele>72.591393</ele>
        <time>2022-07-11T17:06:37.032Z</time>
      </trkpt>
      <trkpt lat="44.66335" lon="0.62444">
        <ele>73.147194</ele>
        <time>2022-07-11T17:06:47.863Z</time>
      </trkpt>
      <trkpt lat="44.66312" lon="0.62514">
        <ele>73.818549</ele>
        <time>2022-07-11T17:07:00.567Z</time>
      </trkpt>
      <trkpt lat="44.66188" lon="0.6276">
        <ele>74.635127</ele>
        <time>2022-07-11T17:07:43.583Z</time>
      </trkpt>
      <trkpt lat="44.66144" lon="0.62938">
        <ele>74.649375</ele>
        <time>2022-07-11T17:08:08.032Z</time>
      </trkpt>
      <trkpt lat="44.66059" lon="0.63229">
        <ele>74.20145</ele>
        <time>2022-07-11T17:08:48.463Z</time>
      </trkpt>
      <trkpt lat="44.66044" lon="0.63294">
        <ele>74.093679</ele>
        <time>2022-07-11T17:08:57.152Z</time>
      </trkpt>
      <trkpt lat="44.66017" lon="0.63376">
        <ele>73.949992</ele>
        <time>2022-07-11T17:09:08.751Z</time>
      </trkpt>
      <trkpt lat="44.65994" lon="0.63454">
        <ele>73.864532</ele>
        <time>2022-07-11T17:09:19.610Z</time>
      </trkpt>
      <trkpt lat="44.65951" lon="0.63642">
        <ele>73.805244</ele>
        <time>2022-07-11T17:09:45.771Z</time>
      </trkpt>
      <trkpt lat="44.65912" lon="0.63748">
        <ele>73.75565</ele>
        <time>2022-07-11T17:10:01.475Z</time>
      </trkpt>
      <trkpt lat="44.65898" lon="0.63811">
        <ele>73.726752</ele>
        <time>2022-07-11T17:10:10.070Z</time>
      </trkpt>
      <trkpt lat="44.65914" lon="0.64131">
        <ele>73.509743</ele>
        <time>2022-07-11T17:10:51.543Z</time>
      </trkpt>
      <trkpt lat="44.65904" lon="0.64192">
        <ele>73.588211</ele>
        <time>2022-07-11T17:11:00.026Z</time>
      </trkpt>
      <trkpt lat="44.65872" lon="0.6423">
        <ele>73.708362</ele>
        <time>2022-07-11T17:11:08.201Z</time>
      </trkpt>
      <trkpt lat="44.6579" lon="0.6429">
        <ele>73.972098</ele>
        <time>2022-07-11T17:11:26.793Z</time>
      </trkpt>
      <trkpt lat="44.65745" lon="0.6433">
        <ele>74.097961</ele>
        <time>2022-07-11T17:11:37.700Z</time>
      </trkpt>
      <trkpt lat="44.65717" lon="0.64366">
        <ele>74.182814</ele>
        <time>2022-07-11T17:11:45.591Z</time>
      </trkpt>
      <trkpt lat="44.65619" lon="0.64521">
        <ele>74.122685</ele>
        <time>2022-07-11T17:12:13.057Z</time>
      </trkpt>
      <trkpt lat="44.65623" lon="0.64546">
        <ele>74.0034</ele>
        <time>2022-07-11T17:12:16.245Z</time>
      </trkpt>
      <trkpt lat="44.65618" lon="0.64715">
        <ele>73.22458</ele>
        <time>2022-07-11T17:12:36.537Z</time>
      </trkpt>
      <trkpt lat="44.65621" lon="0.64774">
        <ele>72.869865</ele>
        <time>2022-07-11T17:12:43.356Z</time>
      </trkpt>
      <trkpt lat="44.65633" lon="0.64801">
        <ele>72.677202</ele>
        <time>2022-07-11T17:12:47.123Z</time>
      </trkpt>
      <trkpt lat="44.65654" lon="0.6482">
        <ele>72.465309</ele>
        <time>2022-07-11T17:12:51.255Z</time>
      </trkpt>
      <trkpt lat="44.65882" lon="0.64946">
        <ele>70.953987</ele>
        <time>2022-07-11T17:13:33.211Z</time>
      </trkpt>
      <trkpt lat="44.65894" lon="0.64953">
        <ele>70.887689</ele>
        <time>2022-07-11T17:13:35.857Z</time>
      </trkpt>
      <trkpt lat="44.66017" lon="0.6502">
        <ele>71.104027</ele>
        <time>2022-07-11T17:14:01.277Z</time>
      </trkpt>
      <trkpt lat="44.66039" lon="0.65023">
        <ele>71.150437</ele>
        <time>2022-07-11T17:14:05.846Z</time>
      </trkpt>
      <trkpt lat="44.65974" lon="0.65196">
        <ele>71.556643</ele>
        <time>2022-07-11T17:14:32.813Z</time>
      </trkpt>
      <trkpt lat="44.65966" lon="0.65217">
        <ele>71.612034</ele>
        <time>2022-07-11T17:14:36.156Z</time>
      </trkpt>
      <trkpt lat="44.65952" lon="0.6536">
        <ele>71.859273</ele>
        <time>2022-07-11T17:14:55.021Z</time>
      </trkpt>
      <trkpt lat="44.65922" lon="0.6557">
        <ele>72.133124</ele>
        <time>2022-07-11T17:15:22.889Z</time>
      </trkpt>
      <trkpt lat="44.65911" lon="0.65653">
        <ele>72.413583</ele>
        <time>2022-07-11T17:15:34.545Z</time>
      </trkpt>
      <trkpt lat="44.65893" lon="0.65793">
        <ele>72.88497</ele>
        <time>2022-07-11T17:15:54.988Z</time>
      </trkpt>
      <trkpt lat="44.65884" lon="0.65832">
        <ele>72.97433</ele>
        <time>2022-07-11T17:16:00.994Z</time>
      </trkpt>
      <trkpt lat="44.65814" lon="0.66025">
        <ele>73.430229</ele>
        <time>2022-07-11T17:16:30.186Z</time>
      </trkpt>
      <trkpt lat="44.65806" lon="0.66057">
        <ele>73.353652</ele>
        <time>2022-07-11T17:16:34.295Z</time>
      </trkpt>
      <trkpt lat="44.65801" lon="0.66093">
        <ele>73.270257</ele>
        <time>2022-07-11T17:16:38.813Z</time>
      </trkpt>
      <trkpt lat="44.65806" lon="0.66307">
        <ele>72.879729</ele>
        <time>2022-07-11T17:17:04.450Z</time>
      </trkpt>
      <trkpt lat="44.65809" lon="0.6634">
        <ele>72.891178</ele>
        <time>2022-07-11T17:17:08.632Z</time>
      </trkpt>
      <trkpt lat="44.65825" lon="0.66383">
        <ele>72.907462</ele>
        <time>2022-07-11T17:17:14.687Z</time>
      </trkpt>
      <trkpt lat="44.65853" lon="0.66442">
        <ele>72.931906</ele>
        <time>2022-07-11T17:17:24.152Z</time>
      </trkpt>
      <trkpt lat="44.65934" lon="0.66577">
        <ele>73.085799</ele>
        <time>2022-07-11T17:17:48.104Z</time>
      </trkpt>
      <trkpt lat="44.65961" lon="0.66634">
        <ele>73.165665</ele>
        <time>2022-07-11T17:17:57.038Z</time>
      </trkpt>
      <trkpt lat="44.65986" lon="0.66745">
        <ele>73.360274</ele>
        <time>2022-07-11T17:18:11.744Z</time>
      </trkpt>
      <trkpt lat="44.66011" lon="0.66899">
        <ele>73.753264</ele>
        <time>2022-07-11T17:18:32.155Z</time>
      </trkpt>
      <trkpt lat="44.6604" lon="0.66982">
        <ele>74.384129</ele>
        <time>2022-07-11T17:18:46.629Z</time>
      </trkpt>
      <trkpt lat="44.6605" lon="0.67024">
        <ele>74.935972</ele>
        <time>2022-07-11T17:18:54.084Z</time>
      </trkpt>
      <trkpt lat="44.66052" lon="0.67052">
        <ele>75.277747</ele>
        <time>2022-07-11T17:18:59.525Z</time>
      </trkpt>
      <trkpt lat="44.66048" lon="0.6708">
        <ele>75.633444</ele>
        <time>2022-07-11T17:19:04.151Z</time>
      </trkpt>
      <trkpt lat="44.66039" lon="0.67115">
        <ele>76.091329</ele>
        <time>2022-07-11T17:19:10.991Z</time>
      </trkpt>
      <trkpt lat="44.66027" lon="0.67141">
        <ele>76.477801</ele>
        <time>2022-07-11T17:19:17.259Z</time>
      </trkpt>
      <trkpt lat="44.65885" lon="0.67317">
        <ele>80.285598</ele>
        <time>2022-07-11T17:20:07.094Z</time>
      </trkpt>
      <trkpt lat="44.65865" lon="0.67369">
        <ele>81.120226</ele>
        <time>2022-07-11T17:20:17.523Z</time>
      </trkpt>
      <trkpt lat="44.6586" lon="0.67413">
        <ele>81.721386</ele>
        <time>2022-07-11T17:20:25.503Z</time>
      </trkpt>
      <trkpt lat="44.65835" lon="0.67676">
        <ele>85.196611</ele>
        <time>2022-07-11T17:21:13.334Z</time>
      </trkpt>
      <trkpt lat="44.65815" lon="0.67889">
        <ele>87.176324</ele>
        <time>2022-07-11T17:21:51.973Z</time>
      </trkpt>
      <trkpt lat="44.65798" lon="0.68047">
        <ele>86.861285</ele>
        <time>2022-07-11T17:22:10.987Z</time>
      </trkpt>
      <trkpt lat="44.65794" lon="0.68074">
        <ele>86.80708</ele>
        <time>2022-07-11T17:22:13.924Z</time>
      </trkpt>
      <trkpt lat="44.65792" lon="0.68105">
        <ele>86.55995</ele>
        <time>2022-07-11T17:22:17.252Z</time>
      </trkpt>
      <trkpt lat="44.65796" lon="0.68128">
        <ele>86.192259</ele>
        <time>2022-07-11T17:22:19.644Z</time>
      </trkpt>
      <trkpt lat="44.6581" lon="0.6816">
        <ele>85.594852</ele>
        <time>2022-07-11T17:22:23.601Z</time>
      </trkpt>
      <trkpt lat="44.65809" lon="0.68177">
        <ele>85.329427</ele>
        <time>2022-07-11T17:22:25.265Z</time>
      </trkpt>
      <trkpt lat="44.65774" lon="0.68286">
        <ele>83.460829</ele>
        <time>2022-07-11T17:22:37.150Z</time>
      </trkpt>
      <trkpt lat="44.65732" lon="0.68362">
        <ele>82.450033</ele>
        <time>2022-07-11T17:22:47.313Z</time>
      </trkpt>
      <trkpt lat="44.65638" lon="0.68549">
        <ele>81.136041</ele>
        <time>2022-07-11T17:23:14.252Z</time>
      </trkpt>
      <trkpt lat="44.65612" lon="0.68585">
        <ele>81.158093</ele>
        <time>2022-07-11T17:23:20.761Z</time>
      </trkpt>
      <trkpt lat="44.65365" lon="0.68805">
        <ele>81.992948</ele>
        <time>2022-07-11T17:24:15.901Z</time>
      </trkpt>
      <trkpt lat="44.65301" lon="0.68885">
        <ele>83.373888</ele>
        <time>2022-07-11T17:24:36.033Z</time>
      </trkpt>
      <trkpt lat="44.65224" lon="0.69015">
        <ele>85.472313</ele>
        <time>2022-07-11T17:25:08.443Z</time>
      </trkpt>
      <trkpt lat="44.65172" lon="0.69133">
        <ele>87.150215</ele>
        <time>2022-07-11T17:25:34.122Z</time>
      </trkpt>
      <trkpt lat="44.65115" lon="0.6927">
        <ele>88.471247</ele>
        <time>2022-07-11T17:25:58.720Z</time>
      </trkpt>
      <trkpt lat="44.65017" lon="0.69555">
        <ele>90.001287</ele>
        <time>2022-07-11T17:26:41.208Z</time>
      </trkpt>
      <trkpt lat="44.65011" lon="0.69576">
        <ele>90.144397</ele>
        <time>2022-07-11T17:26:44.815Z</time>
      </trkpt>
      <trkpt lat="44.64983" lon="0.69692">
        <ele>91.21182</ele>
        <time>2022-07-11T17:27:05.572Z</time>
      </trkpt>
      <trkpt lat="44.64966" lon="0.69781">
        <ele>92.801714</ele>
        <time>2022-07-11T17:27:23.513Z</time>
      </trkpt>
      <trkpt lat="44.64961" lon="0.69835">
        <ele>93.724766</ele>
        <time>2022-07-11T17:27:34.423Z</time>
      </trkpt>
      <trkpt lat="44.64969" lon="0.69968">
        <ele>96.369435</ele>
        <time>2022-07-11T17:28:01.773Z</time>
      </trkpt>
      <trkpt lat="44.64959" lon="0.70115">
        <ele>99.833001</ele>
        <time>2022-07-11T17:28:34.624Z</time>
      </trkpt>
      <trkpt lat="44.64947" lon="0.70172">
        <ele>101.210456</ele>
        <time>2022-07-11T17:28:49.184Z</time>
      </trkpt>
      <trkpt lat="44.64894" lon="0.70361">
        <ele>105.220132</ele>
        <time>2022-07-11T17:29:34.179Z</time>
      </trkpt>
      <trkpt lat="44.64708" lon="0.70651">
        <ele>106.419185</ele>
        <time>2022-07-11T17:30:28.729Z</time>
      </trkpt>
      <trkpt lat="44.64622" lon="0.7086">
        <ele>104.170739</ele>
        <time>2022-07-11T17:30:53.832Z</time>
      </trkpt>
      <trkpt lat="44.64592" lon="0.70967">
        <ele>102.732559</ele>
        <time>2022-07-11T17:31:05.920Z</time>
      </trkpt>
      <trkpt lat="44.64555" lon="0.71053">
        <ele>101.935588</ele>
        <time>2022-07-11T17:31:17.052Z</time>
      </trkpt>
      <trkpt lat="44.64503" lon="0.71202">
        <ele>101.496218</ele>
        <time>2022-07-11T17:31:37.298Z</time>
      </trkpt>
      <trkpt lat="44.64477" lon="0.71299">
        <ele>101.566877</ele>
        <time>2022-07-11T17:31:51.417Z</time>
      </trkpt>
      <trkpt lat="44.64456" lon="0.71355">
        <ele>101.747145</ele>
        <time>2022-07-11T17:32:00.443Z</time>
      </trkpt>
      <trkpt lat="44.6442" lon="0.71422">
        <ele>101.986352</ele>
        <time>2022-07-11T17:32:12.478Z</time>
      </trkpt>
      <trkpt lat="44.64385" lon="0.71522">
        <ele>101.916503</ele>
        <time>2022-07-11T17:32:27.346Z</time>
      </trkpt>
      <trkpt lat="44.64335" lon="0.71615">
        <ele>101.597926</ele>
        <time>2022-07-11T17:32:41.543Z</time>
      </trkpt>
      <trkpt lat="44.64247" lon="0.71813">
        <ele>99.639877</ele>
        <time>2022-07-11T17:33:07.626Z</time>
      </trkpt>
      <trkpt lat="44.64214" lon="0.71905">
        <ele>98.41593</ele>
        <time>2022-07-11T17:33:18.197Z</time>
      </trkpt>
      <trkpt lat="44.64211" lon="0.71927">
        <ele>98.005107</ele>
        <time>2022-07-11T17:33:20.529Z</time>
      </trkpt>
      <trkpt lat="44.64058" lon="0.71746">
        <ele>96.1</ele>
      </trkpt>
      <trkpt lat="44.63628" lon="0.71598">
        <ele>84.6</ele>
      </trkpt>
      <trkpt lat="44.63437" lon="0.71373">
        <ele>83.4</ele>
      </trkpt>
      <trkpt lat="44.63409" lon="0.71364">
        <ele>82.7</ele>
      </trkpt>
      <trkpt lat="44.63359" lon="0.71411">
        <ele>81.9</ele>
      </trkpt>
      <trkpt lat="44.63339" lon="0.71437">
        <ele>81.4</ele>
      </trkpt>
      <trkpt lat="44.63347" lon="0.71476">
        <ele>80.9</ele>
      </trkpt>
      <trkpt lat="44.63208" lon="0.71596">
        <ele>80.2</ele>
      </trkpt>
      <trkpt lat="44.63049" lon="0.71802">
        <ele>84.9</ele>
        <time>2022-07-11T17:34:51.272Z</time>
      </trkpt>
      <trkpt lat="44.63455" lon="0.73317">
        <ele>88</ele>
        <time>2022-07-11T17:36:46.970Z</time>
      </trkpt>
      <trkpt lat="44.63617" lon="0.73982">
        <ele>89.8</ele>
      </trkpt>
      <trkpt lat="44.63759" lon="0.74313">
        <ele>97.257454</ele>
        <time>2022-07-11T17:40:04.913Z</time>
      </trkpt>
      <trkpt lat="44.64209" lon="0.74038">
        <ele>84.5</ele>
      </trkpt>
      <trkpt lat="44.64422" lon="0.74047">
        <ele>91.171262</ele>
        <time>2022-07-11T17:42:20.785Z</time>
      </trkpt>
      <trkpt lat="44.64485" lon="0.74051">
        <ele>92.318376</ele>
        <time>2022-07-11T17:42:36.670Z</time>
      </trkpt>
      <trkpt lat="44.64495" lon="0.74051">
        <ele>92.33835</ele>
        <time>2022-07-11T17:42:38.852Z</time>
      </trkpt>
      <trkpt lat="44.64507" lon="0.74051">
        <ele>92.305462</ele>
        <time>2022-07-11T17:42:41.429Z</time>
      </trkpt>
      <trkpt lat="44.6457" lon="0.74046">
        <ele>92.125742</ele>
        <time>2022-07-11T17:42:53.255Z</time>
      </trkpt>
      <trkpt lat="44.64603" lon="0.74031">
        <ele>92.027401</ele>
        <time>2022-07-11T17:42:58.981Z</time>
      </trkpt>
      <trkpt lat="44.64725" lon="0.73956">
        <ele>91.804131</ele>
        <time>2022-07-11T17:43:19.296Z</time>
      </trkpt>
      <trkpt lat="44.6476" lon="0.73933">
        <ele>91.779339</ele>
        <time>2022-07-11T17:43:25.734Z</time>
      </trkpt>
      <trkpt lat="44.64883" lon="0.7385">
        <ele>93.123724</ele>
        <time>2022-07-11T17:43:58.393Z</time>
      </trkpt>
      <trkpt lat="44.64978" lon="0.73788">
        <ele>95.337986</ele>
        <time>2022-07-11T17:44:28.876Z</time>
      </trkpt>
      <trkpt lat="44.65073" lon="0.73741">
        <ele>96.08159</ele>
        <time>2022-07-11T17:44:52.239Z</time>
      </trkpt>
      <trkpt lat="44.65098" lon="0.7372">
        <ele>96.255709</ele>
        <time>2022-07-11T17:44:57.694Z</time>
      </trkpt>
      <trkpt lat="44.65122" lon="0.73688">
        <ele>96.449909</ele>
        <time>2022-07-11T17:45:03.308Z</time>
      </trkpt>
      <trkpt lat="44.65177" lon="0.73582">
        <ele>95.971344</ele>
        <time>2022-07-11T17:45:17.954Z</time>
      </trkpt>
      <trkpt lat="44.65235" lon="0.73501">
        <ele>95.185161</ele>
        <time>2022-07-11T17:45:30.621Z</time>
      </trkpt>
      <trkpt lat="44.65315" lon="0.73393">
        <ele>95.486673</ele>
        <time>2022-07-11T17:45:49.666Z</time>
      </trkpt>
      <trkpt lat="44.65373" lon="0.73358">
        <ele>95.958096</ele>
        <time>2022-07-11T17:46:04.166Z</time>
      </trkpt>
      <trkpt lat="44.65508" lon="0.73298">
        <ele>98.341532</ele>
        <time>2022-07-11T17:46:41.590Z</time>
      </trkpt>
      <trkpt lat="44.65655" lon="0.73225">
        <ele>100.90908</ele>
        <time>2022-07-11T17:47:21.176Z</time>
      </trkpt>
      <trkpt lat="44.65694" lon="0.732">
        <ele>101.469279</ele>
        <time>2022-07-11T17:47:30.583Z</time>
      </trkpt>
      <trkpt lat="44.6572" lon="0.73184">
        <ele>101.853117</ele>
        <time>2022-07-11T17:47:36.747Z</time>
      </trkpt>
      <trkpt lat="44.65725" lon="0.7318">
        <ele>101.923565</ele>
        <time>2022-07-11T17:47:37.874Z</time>
      </trkpt>
      <trkpt lat="44.65728" lon="0.73178">
        <ele>101.970441</ele>
        <time>2022-07-11T17:47:38.630Z</time>
      </trkpt>
      <trkpt lat="44.65795" lon="0.73126">
        <ele>102.600985</ele>
        <time>2022-07-11T17:47:53.914Z</time>
      </trkpt>
      <trkpt lat="44.65855" lon="0.73081">
        <ele>103.0438</ele>
        <time>2022-07-11T17:48:07.367Z</time>
      </trkpt>
      <trkpt lat="44.6594" lon="0.73019">
        <ele>103.886517</ele>
        <time>2022-07-11T17:48:27.722Z</time>
      </trkpt>
      <trkpt lat="44.66133" lon="0.72845">
        <ele>105.947335</ele>
        <time>2022-07-11T17:49:20.420Z</time>
      </trkpt>
      <trkpt lat="44.66196" lon="0.72777">
        <ele>106.328449</ele>
        <time>2022-07-11T17:49:34.412Z</time>
      </trkpt>
      <trkpt lat="44.66257" lon="0.72692">
        <ele>105.370215</ele>
        <time>2022-07-11T17:49:47.947Z</time>
      </trkpt>
      <trkpt lat="44.66283" lon="0.72639">
        <ele>104.763146</ele>
        <time>2022-07-11T17:49:54.866Z</time>
      </trkpt>
      <trkpt lat="44.66335" lon="0.72527">
        <ele>103.648052</ele>
        <time>2022-07-11T17:50:09.095Z</time>
      </trkpt>
      <trkpt lat="44.66439" lon="0.72184">
        <ele>102.022183</ele>
        <time>2022-07-11T17:50:52.493Z</time>
      </trkpt>
      <trkpt lat="44.6651" lon="0.71903">
        <ele>102.939261</ele>
        <time>2022-07-11T17:51:36.995Z</time>
      </trkpt>
      <trkpt lat="44.6656" lon="0.71791">
        <ele>102.576529</ele>
        <time>2022-07-11T17:51:54.660Z</time>
      </trkpt>
      <trkpt lat="44.66614" lon="0.71719">
        <ele>102.003049</ele>
        <time>2022-07-11T17:52:06.488Z</time>
      </trkpt>
      <trkpt lat="44.66685" lon="0.71624">
        <ele>100.328573</ele>
        <time>2022-07-11T17:52:20.712Z</time>
      </trkpt>
      <trkpt lat="44.66737" lon="0.71562">
        <ele>98.786885</ele>
        <time>2022-07-11T17:52:30.307Z</time>
      </trkpt>
      <trkpt lat="44.66791" lon="0.71477">
        <ele>97.369769</ele>
        <time>2022-07-11T17:52:42.110Z</time>
      </trkpt>
      <trkpt lat="44.66823" lon="0.71415">
        <ele>96.858508</ele>
        <time>2022-07-11T17:52:50.480Z</time>
      </trkpt>
      <trkpt lat="44.66841" lon="0.71381">
        <ele>96.570033</ele>
        <time>2022-07-11T17:52:55.574Z</time>
      </trkpt>
      <trkpt lat="44.66922" lon="0.7121">
        <ele>95.873103</ele>
        <time>2022-07-11T17:53:21.227Z</time>
      </trkpt>
      <trkpt lat="44.67044" lon="0.70968">
        <ele>95.568621</ele>
        <time>2022-07-11T17:53:58.078Z</time>
      </trkpt>
      <trkpt lat="44.67079" lon="0.709">
        <ele>95.467096</ele>
        <time>2022-07-11T17:54:08.479Z</time>
      </trkpt>
      <trkpt lat="44.6712" lon="0.70823">
        <ele>95.281538</ele>
        <time>2022-07-11T17:54:20.224Z</time>
      </trkpt>
      <trkpt lat="44.67223" lon="0.70631">
        <ele>94.723466</ele>
        <time>2022-07-11T17:54:49.545Z</time>
      </trkpt>
      <trkpt lat="44.6735" lon="0.70401">
        <ele>93.11586</ele>
        <time>2022-07-11T17:55:24.365Z</time>
      </trkpt>
      <trkpt lat="44.67386" lon="0.70326">
        <ele>92.265109</ele>
        <time>2022-07-11T17:55:33.900Z</time>
      </trkpt>
      <trkpt lat="44.67452" lon="0.70205">
        <ele>90.270027</ele>
        <time>2022-07-11T17:55:49.447Z</time>
      </trkpt>
      <trkpt lat="44.67483" lon="0.70128">
        <ele>88.947993</ele>
        <time>2022-07-11T17:55:58.603Z</time>
      </trkpt>
      <trkpt lat="44.67521" lon="0.7">
        <ele>87.281575</ele>
        <time>2022-07-11T17:56:13.363Z</time>
      </trkpt>
      <trkpt lat="44.67558" lon="0.69918">
        <ele>86.329068</ele>
        <time>2022-07-11T17:56:24.079Z</time>
      </trkpt>
      <trkpt lat="44.67579" lon="0.69872">
        <ele>85.792002</ele>
        <time>2022-07-11T17:56:30.174Z</time>
      </trkpt>
      <trkpt lat="44.67649" lon="0.69728">
        <ele>85.205575</ele>
        <time>2022-07-11T17:56:49.697Z</time>
      </trkpt>
      <trkpt lat="44.67667" lon="0.69691">
        <ele>85.101275</ele>
        <time>2022-07-11T17:56:55.736Z</time>
      </trkpt>
      <trkpt lat="44.67733" lon="0.69561">
        <ele>86.381557</ele>
        <time>2022-07-11T17:57:20.521Z</time>
      </trkpt>
      <trkpt lat="44.67758" lon="0.69528">
        <ele>87.060227</ele>
        <time>2022-07-11T17:57:29.687Z</time>
      </trkpt>
      <trkpt lat="44.67816" lon="0.69477">
        <ele>88.396854</ele>
        <time>2022-07-11T17:57:49.156Z</time>
      </trkpt>
      <trkpt lat="44.67901" lon="0.6942">
        <ele>90.972539</ele>
        <time>2022-07-11T17:58:18.161Z</time>
      </trkpt>
      <trkpt lat="44.67961" lon="0.69369">
        <ele>92.897241</ele>
        <time>2022-07-11T17:58:37.822Z</time>
      </trkpt>
      <trkpt lat="44.68054" lon="0.69255">
        <ele>95.392519</ele>
        <time>2022-07-11T17:59:10.485Z</time>
      </trkpt>
      <trkpt lat="44.68094" lon="0.69195">
        <ele>96.475963</ele>
        <time>2022-07-11T17:59:24.072Z</time>
      </trkpt>
      <trkpt lat="44.68179" lon="0.69029">
        <ele>98.51812</ele>
        <time>2022-07-11T17:59:58.370Z</time>
      </trkpt>
      <trkpt lat="44.68237" lon="0.68925">
        <ele>99.440015</ele>
        <time>2022-07-11T18:00:19.910Z</time>
      </trkpt>
      <trkpt lat="44.68329" lon="0.688">
        <ele>100.128569</ele>
        <time>2022-07-11T18:00:44.995Z</time>
      </trkpt>
      <trkpt lat="44.68359" lon="0.68757">
        <ele>99.823772</ele>
        <time>2022-07-11T18:00:52.383Z</time>
      </trkpt>
      <trkpt lat="44.68426" lon="0.68655">
        <ele>98.696717</ele>
        <time>2022-07-11T18:01:08.215Z</time>
      </trkpt>
      <trkpt lat="44.68511" lon="0.6852">
        <ele>95.228228</ele>
        <time>2022-07-11T18:01:26.500Z</time>
      </trkpt>
      <trkpt lat="44.68545" lon="0.68475">
        <ele>93.51221</ele>
        <time>2022-07-11T18:01:32.571Z</time>
      </trkpt>
      <trkpt lat="44.68557" lon="0.68461">
        <ele>92.95017</ele>
        <time>2022-07-11T18:01:34.527Z</time>
      </trkpt>
      <trkpt lat="44.68673" lon="0.68314">
        <ele>86.371093</ele>
        <time>2022-07-11T18:01:54.370Z</time>
      </trkpt>
      <trkpt lat="44.68778" lon="0.68168">
        <ele>82.044615</ele>
        <time>2022-07-11T18:02:14.534Z</time>
      </trkpt>
      <trkpt lat="44.68794" lon="0.68146">
        <ele>81.623803</ele>
        <time>2022-07-11T18:02:18.015Z</time>
      </trkpt>
      <trkpt lat="44.68895" lon="0.68009">
        <ele>80.395483</ele>
        <time>2022-07-11T18:02:41.176Z</time>
      </trkpt>
      <trkpt lat="44.68909" lon="0.67978">
        <ele>80.454613</ele>
        <time>2022-07-11T18:02:45.955Z</time>
      </trkpt>
      <trkpt lat="44.68935" lon="0.67894">
        <ele>80.598966</ele>
        <time>2022-07-11T18:02:59.132Z</time>
      </trkpt>
      <trkpt lat="44.68957" lon="0.67837">
        <ele>81.164259</ele>
        <time>2022-07-11T18:03:09.970Z</time>
      </trkpt>
      <trkpt lat="44.68991" lon="0.67786">
        <ele>82.186652</ele>
        <time>2022-07-11T18:03:21.972Z</time>
      </trkpt>
      <trkpt lat="44.69001" lon="0.67773">
        <ele>82.47256</ele>
        <time>2022-07-11T18:03:25.374Z</time>
      </trkpt>
      <trkpt lat="44.69064" lon="0.67704">
        <ele>84.102759</ele>
        <time>2022-07-11T18:03:46.383Z</time>
      </trkpt>
      <trkpt lat="44.69145" lon="0.67631">
        <ele>88.483098</ele>
        <time>2022-07-11T18:04:18.249Z</time>
      </trkpt>
      <trkpt lat="44.69388" lon="0.67473">
        <ele>103.828952</ele>
        <time>2022-07-11T18:06:12.008Z</time>
      </trkpt>
      <trkpt lat="44.69391" lon="0.67471">
        <ele>103.996494</ele>
        <time>2022-07-11T18:06:13.167Z</time>
      </trkpt>
      <trkpt lat="44.69471" lon="0.67422">
        <ele>109.050022</ele>
        <time>2022-07-11T18:06:50.647Z</time>
      </trkpt>
      <trkpt lat="44.69508" lon="0.67375">
        <ele>111.983886</ele>
        <time>2022-07-11T18:07:11.930Z</time>
      </trkpt>
      <trkpt lat="44.69541" lon="0.67306">
        <ele>115.091181</ele>
        <time>2022-07-11T18:07:34.291Z</time>
      </trkpt>
      <trkpt lat="44.69576" lon="0.67215">
        <ele>117.661829</ele>
        <time>2022-07-11T18:07:59.999Z</time>
      </trkpt>
      <trkpt lat="44.69621" lon="0.67139">
        <ele>120.109262</ele>
        <time>2022-07-11T18:08:20.241Z</time>
      </trkpt>
      <trkpt lat="44.69801" lon="0.66874">
        <ele>125.671879</ele>
        <time>2022-07-11T18:09:26.277Z</time>
      </trkpt>
      <trkpt lat="44.69817" lon="0.66836">
        <ele>126.347928</ele>
        <time>2022-07-11T18:09:34.611Z</time>
      </trkpt>
      <trkpt lat="44.69875" lon="0.66683">
        <ele>129.034518</ele>
        <time>2022-07-11T18:10:08.391Z</time>
      </trkpt>
      <trkpt lat="44.69926" lon="0.66532">
        <ele>131.614588</ele>
        <time>2022-07-11T18:10:39.890Z</time>
      </trkpt>
      <trkpt lat="44.69944" lon="0.66476">
        <ele>132.488228</ele>
        <time>2022-07-11T18:10:51.234Z</time>
      </trkpt>
      <trkpt lat="44.69985" lon="0.66395">
        <ele>133.631527</ele>
        <time>2022-07-11T18:11:08.978Z</time>
      </trkpt>
      <trkpt lat="44.70017" lon="0.66355">
        <ele>134.317136</ele>
        <time>2022-07-11T18:11:19.355Z</time>
      </trkpt>
      <trkpt lat="44.70096" lon="0.66262">
        <ele>135.696431</ele>
        <time>2022-07-11T18:11:42.479Z</time>
      </trkpt>
      <trkpt lat="44.70147" lon="0.66179">
        <ele>136.501886</ele>
        <time>2022-07-11T18:11:58.513Z</time>
      </trkpt>
      <trkpt lat="44.70242" lon="0.66064">
        <ele>138.695571</ele>
        <time>2022-07-11T18:12:27.552Z</time>
      </trkpt>
      <trkpt lat="44.70322" lon="0.65969">
        <ele>141.029896</ele>
        <time>2022-07-11T18:12:57.173Z</time>
      </trkpt>
      <trkpt lat="44.7038" lon="0.659">
        <ele>143.777434</ele>
        <time>2022-07-11T18:13:22.134Z</time>
      </trkpt>
      <trkpt lat="44.7049" lon="0.65809">
        <ele>148.254688</ele>
        <time>2022-07-11T18:14:04.365Z</time>
      </trkpt>
      <trkpt lat="44.70559" lon="0.65786">
        <ele>150.450807</ele>
        <time>2022-07-11T18:14:26.205Z</time>
      </trkpt>
      <trkpt lat="44.7069" lon="0.65788">
        <ele>153.638805</ele>
        <time>2022-07-11T18:15:04.348Z</time>
      </trkpt>
      <trkpt lat="44.70755" lon="0.65777">
        <ele>154.371461</ele>
        <time>2022-07-11T18:15:18.420Z</time>
      </trkpt>
      <trkpt lat="44.70764" lon="0.65775">
        <ele>154.482116</ele>
        <time>2022-07-11T18:15:20.456Z</time>
      </trkpt>
      <trkpt lat="44.70841" lon="0.65721">
        <ele>154.759201</ele>
        <time>2022-07-11T18:15:35.771Z</time>
      </trkpt>
      <trkpt lat="44.70883" lon="0.65681">
        <ele>153.964193</ele>
        <time>2022-07-11T18:15:44.155Z</time>
      </trkpt>
      <trkpt lat="44.70922" lon="0.65601">
        <ele>152.912888</ele>
        <time>2022-07-11T18:15:54.187Z</time>
      </trkpt>
      <trkpt lat="44.70935" lon="0.65541">
        <ele>151.955058</ele>
        <time>2022-07-11T18:16:00.641Z</time>
      </trkpt>
      <trkpt lat="44.7096" lon="0.65342">
        <ele>145.970029</ele>
        <time>2022-07-11T18:16:19.457Z</time>
      </trkpt>
      <trkpt lat="44.70985" lon="0.65167">
        <ele>139.746323</ele>
        <time>2022-07-11T18:16:35.157Z</time>
      </trkpt>
      <trkpt lat="44.71008" lon="0.65104">
        <ele>137.167197</ele>
        <time>2022-07-11T18:16:41.466Z</time>
      </trkpt>
      <trkpt lat="44.71145" lon="0.64828">
        <ele>129.616417</ele>
        <time>2022-07-11T18:17:14.176Z</time>
      </trkpt>
      <trkpt lat="44.7118" lon="0.64728">
        <ele>129.016064</ele>
        <time>2022-07-11T18:17:26.970Z</time>
      </trkpt>
      <trkpt lat="44.7122" lon="0.64637">
        <ele>128.548876</ele>
        <time>2022-07-11T18:17:41.711Z</time>
      </trkpt>
      <trkpt lat="44.71274" lon="0.64482">
        <ele>129.85515</ele>
        <time>2022-07-11T18:18:10.271Z</time>
      </trkpt>
      <trkpt lat="44.71385" lon="0.64202">
        <ele>131.538258</ele>
        <time>2022-07-11T18:18:58.697Z</time>
      </trkpt>
      <trkpt lat="44.71435" lon="0.64079">
        <ele>130.66614</ele>
        <time>2022-07-11T18:19:15.088Z</time>
      </trkpt>
      <trkpt lat="44.71476" lon="0.6398">
        <ele>129.918005</ele>
        <time>2022-07-11T18:19:27.576Z</time>
      </trkpt>
      <trkpt lat="44.71506" lon="0.63906">
        <ele>128.988447</ele>
        <time>2022-07-11T18:19:36.554Z</time>
      </trkpt>
      <trkpt lat="44.71521" lon="0.6384">
        <ele>128.217569</ele>
        <time>2022-07-11T18:19:43.954Z</time>
      </trkpt>
      <trkpt lat="44.71531" lon="0.63781">
        <ele>127.554295</ele>
        <time>2022-07-11T18:19:50.215Z</time>
      </trkpt>
      <trkpt lat="44.71551" lon="0.63584">
        <ele>127.01841</ele>
        <time>2022-07-11T18:20:13.290Z</time>
      </trkpt>
      <trkpt lat="44.71563" lon="0.63511">
        <ele>126.971788</ele>
        <time>2022-07-11T18:20:24.081Z</time>
      </trkpt>
      <trkpt lat="44.71577" lon="0.63474">
        <ele>127.355457</ele>
        <time>2022-07-11T18:20:31.045Z</time>
      </trkpt>
      <trkpt lat="44.71667" lon="0.63339">
        <ele>130.474187</ele>
        <time>2022-07-11T18:21:07.449Z</time>
      </trkpt>
      <trkpt lat="44.71733" lon="0.63206">
        <ele>133.879838</ele>
        <time>2022-07-11T18:21:42.930Z</time>
      </trkpt>
      <trkpt lat="44.7176" lon="0.63148">
        <ele>135.45285</ele>
        <time>2022-07-11T18:21:58.989Z</time>
      </trkpt>
      <trkpt lat="44.71854" lon="0.62946">
        <ele>138.952674</ele>
        <time>2022-07-11T18:22:48.277Z</time>
      </trkpt>
      <trkpt lat="44.7202" lon="0.62651">
        <ele>138.366118</ele>
        <time>2022-07-11T18:23:31.602Z</time>
      </trkpt>
      <trkpt lat="44.72252" lon="0.62243">
        <ele>135.571244</ele>
        <time>2022-07-11T18:24:33.247Z</time>
      </trkpt>
      <trkpt lat="44.72391" lon="0.61994">
        <ele>131.525933</ele>
        <time>2022-07-11T18:25:06.298Z</time>
      </trkpt>
      <trkpt lat="44.72454" lon="0.61904">
        <ele>129.653158</ele>
        <time>2022-07-11T18:25:19.369Z</time>
      </trkpt>
      <trkpt lat="44.72521" lon="0.61826">
        <ele>127.356379</ele>
        <time>2022-07-11T18:25:31.811Z</time>
      </trkpt>
      <trkpt lat="44.72552" lon="0.61791">
        <ele>126.286297</ele>
        <time>2022-07-11T18:25:37.547Z</time>
      </trkpt>
      <trkpt lat="44.72585" lon="0.61733">
        <ele>124.88557</ele>
        <time>2022-07-11T18:25:44.608Z</time>
      </trkpt>
      <trkpt lat="44.72625" lon="0.61613">
        <ele>121.918041</ele>
        <time>2022-07-11T18:25:57.338Z</time>
      </trkpt>
      <trkpt lat="44.72639" lon="0.61583">
        <ele>121.100809</ele>
        <time>2022-07-11T18:26:00.834Z</time>
      </trkpt>
      <trkpt lat="44.72756" lon="0.61361">
        <ele>115.941121</ele>
        <time>2022-07-11T18:26:28.440Z</time>
      </trkpt>
      <trkpt lat="44.72814" lon="0.61254">
        <ele>114.202053</ele>
        <time>2022-07-11T18:26:42.880Z</time>
      </trkpt>
      <trkpt lat="44.72878" lon="0.61137">
        <ele>112.826024</ele>
        <time>2022-07-11T18:26:59.097Z</time>
      </trkpt>
      <trkpt lat="44.72995" lon="0.60912">
        <ele>111.584314</ele>
        <time>2022-07-11T18:27:31.489Z</time>
      </trkpt>
      <trkpt lat="44.73001" lon="0.60913">
        <ele>111.551848</ele>
        <time>2022-07-11T18:27:32.762Z</time>
      </trkpt>
      <trkpt lat="44.73004" lon="0.60911">
        <ele>111.570302</ele>
        <time>2022-07-11T18:27:33.623Z</time>
      </trkpt>
      <trkpt lat="44.73008" lon="0.60902">
        <ele>111.613129</ele>
        <time>2022-07-11T18:27:35.176Z</time>
      </trkpt>
      <trkpt lat="44.73007" lon="0.60898">
        <ele>111.627588</ele>
        <time>2022-07-11T18:27:35.676Z</time>
      </trkpt>
      <trkpt lat="44.73002" lon="0.60889">
        <ele>111.679644</ele>
        <time>2022-07-11T18:27:37.406Z</time>
      </trkpt>
      <trkpt lat="44.72996" lon="0.60889">
        <ele>111.71544</ele>
        <time>2022-07-11T18:27:38.581Z</time>
      </trkpt>
      <trkpt lat="44.72992" lon="0.60881">
        <ele>111.756904</ele>
        <time>2022-07-11T18:27:40.069Z</time>
      </trkpt>
      <trkpt lat="44.72989" lon="0.60868">
        <ele>111.815462</ele>
        <time>2022-07-11T18:27:42.397Z</time>
      </trkpt>
      <trkpt lat="44.72988" lon="0.60833">
        <ele>111.962969</ele>
        <time>2022-07-11T18:27:47.592Z</time>
      </trkpt>
      <trkpt lat="44.72985" lon="0.60775">
        <ele>112.209433</ele>
        <time>2022-07-11T18:27:56.701Z</time>
      </trkpt>
      <trkpt lat="44.72989" lon="0.6077">
        <ele>112.239621</ele>
        <time>2022-07-11T18:27:57.845Z</time>
      </trkpt>
      <trkpt lat="44.72995" lon="0.60737">
        <ele>112.385005</ele>
        <time>2022-07-11T18:28:02.918Z</time>
      </trkpt>
      <trkpt lat="44.72996" lon="0.60731">
        <ele>112.410712</ele>
        <time>2022-07-11T18:28:03.793Z</time>
      </trkpt>
      <trkpt lat="44.73003" lon="0.60727">
        <ele>112.454817</ele>
        <time>2022-07-11T18:28:05.373Z</time>
      </trkpt>
      <trkpt lat="44.73005" lon="0.60692">
        <ele>112.603922</ele>
        <time>2022-07-11T18:28:10.295Z</time>
      </trkpt>
      <trkpt lat="44.73011" lon="0.60691">
        <ele>112.587202</ele>
        <time>2022-07-11T18:28:11.570Z</time>
      </trkpt>
      <trkpt lat="44.73033" lon="0.60688">
        <ele>112.354422</ele>
        <time>2022-07-11T18:28:15.998Z</time>
      </trkpt>
      <trkpt lat="44.73039" lon="0.60713">
        <ele>112.157891</ele>
        <time>2022-07-11T18:28:19.487Z</time>
      </trkpt>
      <trkpt lat="44.73033" lon="0.60688">
        <ele>111.961359</ele>
        <time>2022-07-11T18:28:22.750Z</time>
      </trkpt>
      <trkpt lat="44.73059" lon="0.60673">
        <ele>111.667012</ele>
        <time>2022-07-11T18:28:27.413Z</time>
      </trkpt>
      <trkpt lat="44.7306" lon="0.60658">
        <ele>111.559507</ele>
        <time>2022-07-11T18:28:29.006Z</time>
      </trkpt>
      <trkpt lat="44.73079" lon="0.60658">
        <ele>111.368703</ele>
        <time>2022-07-11T18:28:31.740Z</time>
      </trkpt>
      <trkpt lat="44.73094" lon="0.60658">
        <ele>111.209492</ele>
        <time>2022-07-11T18:28:33.937Z</time>
      </trkpt>
      <trkpt lat="44.73097" lon="0.60638">
        <ele>111.061767</ele>
        <time>2022-07-11T18:28:35.958Z</time>
      </trkpt>
      <trkpt lat="44.731" lon="0.60626">
        <ele>110.966853</ele>
        <time>2022-07-11T18:28:37.260Z</time>
      </trkpt>
      <trkpt lat="44.73129" lon="0.60581">
        <ele>110.532984</ele>
        <time>2022-07-11T18:28:43.559Z</time>
      </trkpt>
      <trkpt lat="44.73137" lon="0.60568">
        <ele>110.422155</ele>
        <time>2022-07-11T18:28:45.307Z</time>
      </trkpt>
      <trkpt lat="44.7314" lon="0.60565">
        <ele>110.394655</ele>
        <time>2022-07-11T18:28:45.743Z</time>
      </trkpt>
      <trkpt lat="44.73158" lon="0.60538">
        <ele>110.146885</ele>
        <time>2022-07-11T18:28:49.640Z</time>
      </trkpt>
      <trkpt lat="44.73185" lon="0.60494">
        <ele>109.767893</ele>
        <time>2022-07-11T18:28:55.996Z</time>
      </trkpt>
      <trkpt lat="44.73195" lon="0.60479">
        <ele>109.63691</ele>
        <time>2022-07-11T18:28:58.411Z</time>
      </trkpt>
      <trkpt lat="44.732" lon="0.60471">
        <ele>109.563666</ele>
        <time>2022-07-11T18:28:59.737Z</time>
      </trkpt>
      <trkpt lat="44.73258" lon="0.60377">
        <ele>109.727267</ele>
        <time>2022-07-11T18:29:17.453Z</time>
      </trkpt>
      <trkpt lat="44.73277" lon="0.60358">
        <ele>110.155759</ele>
        <time>2022-07-11T18:29:23.321Z</time>
      </trkpt>
      <trkpt lat="44.7328" lon="0.60368">
        <ele>110.308236</ele>
        <time>2022-07-11T18:29:25.411Z</time>
      </trkpt>
      <trkpt lat="44.7337" lon="0.60318">
        <ele>112.101676</ele>
        <time>2022-07-11T18:29:52.484Z</time>
      </trkpt>
      <trkpt lat="44.73403" lon="0.60298">
        <ele>112.7715</ele>
        <time>2022-07-11T18:30:02.799Z</time>
      </trkpt>
      <trkpt lat="44.73417" lon="0.60283">
        <ele>113.097684</ele>
        <time>2022-07-11T18:30:07.753Z</time>
      </trkpt>
      <trkpt lat="44.73435" lon="0.6025">
        <ele>113.651346</ele>
        <time>2022-07-11T18:30:15.757Z</time>
      </trkpt>
      <trkpt lat="44.73468" lon="0.60192">
        <ele>114.61707</ele>
        <time>2022-07-11T18:30:28.610Z</time>
      </trkpt>
      <trkpt lat="44.73604" lon="0.59946">
        <ele>118.1357</ele>
        <time>2022-07-11T18:31:20.664Z</time>
      </trkpt>
      <trkpt lat="44.73709" lon="0.59754">
        <ele>120.821862</ele>
        <time>2022-07-11T18:32:03.953Z</time>
      </trkpt>
      <trkpt lat="44.73714" lon="0.59745">
        <ele>120.951167</ele>
        <time>2022-07-11T18:32:05.799Z</time>
      </trkpt>
      <trkpt lat="44.73739" lon="0.59699">
        <ele>121.28018</ele>
        <time>2022-07-11T18:32:14.875Z</time>
      </trkpt>
      <trkpt lat="44.73826" lon="0.59522">
        <ele>121.521905</ele>
        <time>2022-07-11T18:32:41.911Z</time>
      </trkpt>
      <trkpt lat="44.73837" lon="0.59458">
        <ele>121.457132</ele>
        <time>2022-07-11T18:32:50.007Z</time>
      </trkpt>
      <trkpt lat="44.73845" lon="0.59429">
        <ele>121.419635</ele>
        <time>2022-07-11T18:32:54.040Z</time>
      </trkpt>
      <trkpt lat="44.73864" lon="0.59394">
        <ele>121.36665</ele>
        <time>2022-07-11T18:32:59.737Z</time>
      </trkpt>
      <trkpt lat="44.7387" lon="0.59384">
        <ele>121.351081</ele>
        <time>2022-07-11T18:33:01.479Z</time>
      </trkpt>
      <trkpt lat="44.73917" lon="0.59337">
        <ele>121.253554</ele>
        <time>2022-07-11T18:33:11.982Z</time>
      </trkpt>
      <trkpt lat="44.73946" lon="0.59274">
        <ele>120.895783</ele>
        <time>2022-07-11T18:33:21.406Z</time>
      </trkpt>
      <trkpt lat="44.74001" lon="0.5911">
        <ele>119.706464</ele>
        <time>2022-07-11T18:33:42.188Z</time>
      </trkpt>
      <trkpt lat="44.74036" lon="0.59047">
        <ele>118.65077</ele>
        <time>2022-07-11T18:33:50.479Z</time>
      </trkpt>
      <trkpt lat="44.74113" lon="0.58947">
        <ele>116.362194</ele>
        <time>2022-07-11T18:34:05.258Z</time>
      </trkpt>
      <trkpt lat="44.74621" lon="0.58284">
        <ele>103.437336</ele>
        <time>2022-07-11T18:35:47.669Z</time>
      </trkpt>
      <trkpt lat="44.74675" lon="0.58211">
        <ele>102.39209</ele>
        <time>2022-07-11T18:35:59.285Z</time>
      </trkpt>
      <trkpt lat="44.74939" lon="0.57865">
        <ele>101.27736</ele>
        <time>2022-07-11T18:37:00.836Z</time>
      </trkpt>
      <trkpt lat="44.75198" lon="0.57529">
        <ele>104.139274</ele>
        <time>2022-07-11T18:38:17.401Z</time>
      </trkpt>
      <trkpt lat="44.75512" lon="0.5712">
        <ele>103.905372</ele>
        <time>2022-07-11T18:39:33.146Z</time>
      </trkpt>
      <trkpt lat="44.75547" lon="0.57076">
        <ele>103.649749</ele>
        <time>2022-07-11T18:39:41.181Z</time>
      </trkpt>
      <trkpt lat="44.75586" lon="0.57022">
        <ele>103.355069</ele>
        <time>2022-07-11T18:39:49.862Z</time>
      </trkpt>
      <trkpt lat="44.75614" lon="0.56971">
        <ele>102.268231</ele>
        <time>2022-07-11T18:39:56.918Z</time>
      </trkpt>
      <trkpt lat="44.75655" lon="0.56844">
        <ele>99.849109</ele>
        <time>2022-07-11T18:40:11.093Z</time>
      </trkpt>
      <trkpt lat="44.7569" lon="0.56774">
        <ele>98.027388</ele>
        <time>2022-07-11T18:40:19.104Z</time>
      </trkpt>
      <trkpt lat="44.75727" lon="0.5672">
        <ele>95.917864</ele>
        <time>2022-07-11T18:40:26.137Z</time>
      </trkpt>
      <trkpt lat="44.75769" lon="0.56676">
        <ele>93.873554</ele>
        <time>2022-07-11T18:40:32.923Z</time>
      </trkpt>
      <trkpt lat="44.75801" lon="0.5665">
        <ele>92.426317</ele>
        <time>2022-07-11T18:40:37.778Z</time>
      </trkpt>
      <trkpt lat="44.75856" lon="0.56617">
        <ele>90.349889</ele>
        <time>2022-07-11T18:40:45.769Z</time>
      </trkpt>
      <trkpt lat="44.75978" lon="0.56577">
        <ele>86.197736</ele>
        <time>2022-07-11T18:41:02.783Z</time>
      </trkpt>
      <trkpt lat="44.76192" lon="0.5641">
        <ele>80.831867</ele>
        <time>2022-07-11T18:41:38.233Z</time>
      </trkpt>
      <trkpt lat="44.76455" lon="0.56281">
        <ele>76.451756</ele>
        <time>2022-07-11T18:42:21.628Z</time>
      </trkpt>
      <trkpt lat="44.76603" lon="0.56165">
        <ele>71.900935</ele>
        <time>2022-07-11T18:42:44.824Z</time>
      </trkpt>
      <trkpt lat="44.76661" lon="0.56113">
        <ele>70.719715</ele>
        <time>2022-07-11T18:42:54.556Z</time>
      </trkpt>
      <trkpt lat="44.767" lon="0.56051">
        <ele>70.41108</ele>
        <time>2022-07-11T18:43:03.709Z</time>
      </trkpt>
      <trkpt lat="44.76715" lon="0.5602">
        <ele>70.271658</ele>
        <time>2022-07-11T18:43:08.084Z</time>
      </trkpt>
      <trkpt lat="44.76727" lon="0.55977">
        <ele>70.101748</ele>
        <time>2022-07-11T18:43:13.949Z</time>
      </trkpt>
      <trkpt lat="44.7674" lon="0.55894">
        <ele>71.173704</ele>
        <time>2022-07-11T18:43:29.909Z</time>
      </trkpt>
      <trkpt lat="44.76737" lon="0.55811">
        <ele>73.372464</ele>
        <time>2022-07-11T18:43:48.614Z</time>
      </trkpt>
      <trkpt lat="44.76717" lon="0.55728">
        <ele>75.692172</ele>
        <time>2022-07-11T18:44:10.559Z</time>
      </trkpt>
      <trkpt lat="44.7662" lon="0.55531">
        <ele>85.527238</ele>
        <time>2022-07-11T18:45:19.914Z</time>
      </trkpt>
      <trkpt lat="44.76605" lon="0.55466">
        <ele>88.572729</ele>
        <time>2022-07-11T18:45:43.104Z</time>
      </trkpt>
      <trkpt lat="44.76605" lon="0.55392">
        <ele>92.101101</ele>
        <time>2022-07-11T18:46:09.788Z</time>
      </trkpt>
      <trkpt lat="44.7661" lon="0.55346">
        <ele>94.32723</ele>
        <time>2022-07-11T18:46:25.660Z</time>
      </trkpt>
      <trkpt lat="44.76646" lon="0.55225">
        <ele>100.082983</ele>
        <time>2022-07-11T18:47:06.039Z</time>
      </trkpt>
      <trkpt lat="44.76648" lon="0.55219">
        <ele>100.216824</ele>
        <time>2022-07-11T18:47:08.017Z</time>
      </trkpt>
      <trkpt lat="44.76773" lon="0.54842">
        <ele>106.488302</ele>
        <time>2022-07-11T18:48:23.330Z</time>
      </trkpt>
      <trkpt lat="44.76973" lon="0.54248">
        <ele>108.044958</ele>
        <time>2022-07-11T18:49:48.292Z</time>
      </trkpt>
      <trkpt lat="44.77019" lon="0.54111">
        <ele>108.759478</ele>
        <time>2022-07-11T18:50:11.082Z</time>
      </trkpt>
      <trkpt lat="44.77066" lon="0.54023">
        <ele>109.777484</ele>
        <time>2022-07-11T18:50:29.060Z</time>
      </trkpt>
      <trkpt lat="44.77189" lon="0.5382">
        <ele>112.480056</ele>
        <time>2022-07-11T18:51:14.644Z</time>
      </trkpt>
      <trkpt lat="44.77352" lon="0.53551">
        <ele>115.790905</ele>
        <time>2022-07-11T18:52:12.747Z</time>
      </trkpt>
      <trkpt lat="44.7745" lon="0.53372">
        <ele>117.463322</ele>
        <time>2022-07-11T18:52:47.462Z</time>
      </trkpt>
      <trkpt lat="44.77457" lon="0.53358">
        <ele>117.583371</ele>
        <time>2022-07-11T18:52:50.070Z</time>
      </trkpt>
      <trkpt lat="44.77481" lon="0.53318">
        <ele>117.958066</ele>
        <time>2022-07-11T18:52:58.353Z</time>
      </trkpt>
      <trkpt lat="44.77515" lon="0.53307">
        <ele>118.245939</ele>
        <time>2022-07-11T18:53:05.862Z</time>
      </trkpt>
      <trkpt lat="44.77547" lon="0.53282">
        <ele>118.546186</ele>
        <time>2022-07-11T18:53:13.688Z</time>
      </trkpt>
      <trkpt lat="44.77604" lon="0.53197">
        <ele>119.221937</ele>
        <time>2022-07-11T18:53:30.769Z</time>
      </trkpt>
      <trkpt lat="44.77739" lon="0.5301">
        <ele>120.990065</ele>
        <time>2022-07-11T18:54:10.903Z</time>
      </trkpt>
      <trkpt lat="44.77791" lon="0.52952">
        <ele>122.053507</ele>
        <time>2022-07-11T18:54:26.295Z</time>
      </trkpt>
      <trkpt lat="44.78004" lon="0.52788">
        <ele>127.903295</ele>
        <time>2022-07-11T18:55:30.035Z</time>
      </trkpt>
      <trkpt lat="44.78013" lon="0.52781">
        <ele>128.205568</ele>
        <time>2022-07-11T18:55:32.933Z</time>
      </trkpt>
      <trkpt lat="44.78016" lon="0.52748">
        <ele>128.9446</ele>
        <time>2022-07-11T18:55:39.935Z</time>
      </trkpt>
      <trkpt lat="44.78017" lon="0.5274">
        <ele>129.105649</ele>
        <time>2022-07-11T18:55:41.618Z</time>
      </trkpt>
      <trkpt lat="44.78037" lon="0.5266">
        <ele>132.319149</ele>
        <time>2022-07-11T18:56:04.849Z</time>
      </trkpt>
      <trkpt lat="44.78047" lon="0.52646">
        <ele>133.353917</ele>
        <time>2022-07-11T18:56:10.748Z</time>
      </trkpt>
      <trkpt lat="44.78091" lon="0.52626">
        <ele>136.939653</ele>
        <time>2022-07-11T18:56:33.851Z</time>
      </trkpt>
      <trkpt lat="44.78097" lon="0.52605">
        <ele>138.164315</ele>
        <time>2022-07-11T18:56:42.164Z</time>
      </trkpt>
      <trkpt lat="44.7812" lon="0.52409">
        <ele>149.095756</ele>
        <time>2022-07-11T18:57:59.223Z</time>
      </trkpt>
      <trkpt lat="44.78116" lon="0.52379">
        <ele>150.784598</ele>
        <time>2022-07-11T18:58:11.274Z</time>
      </trkpt>
      <trkpt lat="44.78086" lon="0.5234">
        <ele>153.931024</ele>
        <time>2022-07-11T18:58:33.462Z</time>
      </trkpt>
      <trkpt lat="44.78038" lon="0.52179">
        <ele>159.873046</ele>
        <time>2022-07-11T18:59:17.920Z</time>
      </trkpt>
      <trkpt lat="44.78025" lon="0.52136">
        <ele>160.760869</ele>
        <time>2022-07-11T18:59:26.809Z</time>
      </trkpt>
      <trkpt lat="44.77983" lon="0.52028">
        <ele>162.737824</ele>
        <time>2022-07-11T18:59:46.182Z</time>
      </trkpt>
      <trkpt lat="44.78006" lon="0.52015">
        <ele>162.680879</ele>
        <time>2022-07-11T18:59:50.934Z</time>
      </trkpt>
      <trkpt lat="44.78063" lon="0.51963">
        <ele>162.522384</ele>
        <time>2022-07-11T19:00:02.035Z</time>
      </trkpt>
      <trkpt lat="44.78199" lon="0.51821">
        <ele>162.033545</ele>
        <time>2022-07-11T19:00:30.453Z</time>
      </trkpt>
      <trkpt lat="44.78218" lon="0.518">
        <ele>161.952179</ele>
        <time>2022-07-11T19:00:34.550Z</time>
      </trkpt>
      <trkpt lat="44.78221" lon="0.51798">
        <ele>161.94184</ele>
        <time>2022-07-11T19:00:35.091Z</time>
      </trkpt>
      <trkpt lat="44.78237" lon="0.51781">
        <ele>161.876525</ele>
        <time>2022-07-11T19:00:38.487Z</time>
      </trkpt>
      <trkpt lat="44.78242" lon="0.51775">
        <ele>161.854214</ele>
        <time>2022-07-11T19:00:39.735Z</time>
      </trkpt>
      <trkpt lat="44.78262" lon="0.51753">
        <ele>161.768238</ele>
        <time>2022-07-11T19:00:44.173Z</time>
      </trkpt>
      <trkpt lat="44.7832" lon="0.51692">
        <ele>161.747801</ele>
        <time>2022-07-11T19:00:56.895Z</time>
      </trkpt>
      <trkpt lat="44.78346" lon="0.51664">
        <ele>161.747117</ele>
        <time>2022-07-11T19:01:02.782Z</time>
      </trkpt>
      <trkpt lat="44.78359" lon="0.51642">
        <ele>161.746692</ele>
        <time>2022-07-11T19:01:06.770Z</time>
      </trkpt>
      <trkpt lat="44.78352" lon="0.51631">
        <ele>161.746471</ele>
        <time>2022-07-11T19:01:08.562Z</time>
      </trkpt>
      <trkpt lat="44.7835" lon="0.51608">
        <ele>161.746134</ele>
        <time>2022-07-11T19:01:11.624Z</time>
      </trkpt>
      <trkpt lat="44.78362" lon="0.51526">
        <ele>161.610036</ele>
        <time>2022-07-11T19:01:22.433Z</time>
      </trkpt>
      <trkpt lat="44.78389" lon="0.51485">
        <ele>161.400697</ele>
        <time>2022-07-11T19:01:29.411Z</time>
      </trkpt>
      <trkpt lat="44.78429" lon="0.51392">
        <ele>160.997391</ele>
        <time>2022-07-11T19:01:41.991Z</time>
      </trkpt>
      <trkpt lat="44.78432" lon="0.51386">
        <ele>160.970926</ele>
        <time>2022-07-11T19:01:42.835Z</time>
      </trkpt>
      <trkpt lat="44.78471" lon="0.51302">
        <ele>160.702354</ele>
        <time>2022-07-11T19:01:54.071Z</time>
      </trkpt>
      <trkpt lat="44.78554" lon="0.51143">
        <ele>160.32504</ele>
        <time>2022-07-11T19:02:18.307Z</time>
      </trkpt>
      <trkpt lat="44.78607" lon="0.50989">
        <ele>161.492242</ele>
        <time>2022-07-11T19:02:45.299Z</time>
      </trkpt>
      <trkpt lat="44.78626" lon="0.50938">
        <ele>161.885851</ele>
        <time>2022-07-11T19:02:54.709Z</time>
      </trkpt>
      <trkpt lat="44.78665" lon="0.50887">
        <ele>162.319058</ele>
        <time>2022-07-11T19:03:06.319Z</time>
      </trkpt>
      <trkpt lat="44.78698" lon="0.50826">
        <ele>162.729125</ele>
        <time>2022-07-11T19:03:17.726Z</time>
      </trkpt>
      <trkpt lat="44.78756" lon="0.50669">
        <ele>163.914424</ele>
        <time>2022-07-11T19:03:42.622Z</time>
      </trkpt>
      <trkpt lat="44.78791" lon="0.50544">
        <ele>165.279812</ele>
        <time>2022-07-11T19:04:04.697Z</time>
      </trkpt>
      <trkpt lat="44.78806" lon="0.50512">
        <ele>165.67293</ele>
        <time>2022-07-11T19:04:11.654Z</time>
      </trkpt>
      <trkpt lat="44.78833" lon="0.50478">
        <ele>166.344585</ele>
        <time>2022-07-11T19:04:21.458Z</time>
      </trkpt>
      <trkpt lat="44.78851" lon="0.50465">
        <ele>166.856932</ele>
        <time>2022-07-11T19:04:27.364Z</time>
      </trkpt>
      <trkpt lat="44.78888" lon="0.50422">
        <ele>168.064896</ele>
        <time>2022-07-11T19:04:40.830Z</time>
      </trkpt>
      <trkpt lat="44.78931" lon="0.50316">
        <ele>170.261944</ele>
        <time>2022-07-11T19:05:05.914Z</time>
      </trkpt>
      <trkpt lat="44.78972" lon="0.50248">
        <ele>171.402544</ele>
        <time>2022-07-11T19:05:23.011Z</time>
      </trkpt>
      <trkpt lat="44.78996" lon="0.50227">
        <ele>171.881211</ele>
        <time>2022-07-11T19:05:30.539Z</time>
      </trkpt>
      <trkpt lat="44.79034" lon="0.50214">
        <ele>172.542448</ele>
        <time>2022-07-11T19:05:40.298Z</time>
      </trkpt>
      <trkpt lat="44.79087" lon="0.5021">
        <ele>173.443296</ele>
        <time>2022-07-11T19:05:52.325Z</time>
      </trkpt>
      <trkpt lat="44.79117" lon="0.50201">
        <ele>173.806478</ele>
        <time>2022-07-11T19:05:58.751Z</time>
      </trkpt>
      <trkpt lat="44.79132" lon="0.50189">
        <ele>173.997876</ele>
        <time>2022-07-11T19:06:03.100Z</time>
      </trkpt>
      <trkpt lat="44.79179" lon="0.50084">
        <ele>174.95198</ele>
        <time>2022-07-11T19:06:23.061Z</time>
      </trkpt>
      <trkpt lat="44.79207" lon="0.50041">
        <ele>175.404958</ele>
        <time>2022-07-11T19:06:32.518Z</time>
      </trkpt>
      <trkpt lat="44.7922" lon="0.50018">
        <ele>175.604007</ele>
        <time>2022-07-11T19:06:37.757Z</time>
      </trkpt>
      <trkpt lat="44.79224" lon="0.49994">
        <ele>175.757952</ele>
        <time>2022-07-11T19:06:41.453Z</time>
      </trkpt>
      <trkpt lat="44.79224" lon="0.49902">
        <ele>176.338965</ele>
        <time>2022-07-11T19:06:56.932Z</time>
      </trkpt>
      <trkpt lat="44.79232" lon="0.4985">
        <ele>176.677676</ele>
        <time>2022-07-11T19:07:05.427Z</time>
      </trkpt>
      <trkpt lat="44.79229" lon="0.49785">
        <ele>177.089754</ele>
        <time>2022-07-11T19:07:15.211Z</time>
      </trkpt>
      <trkpt lat="44.79222" lon="0.49731">
        <ele>176.855129</ele>
        <time>2022-07-11T19:07:22.365Z</time>
      </trkpt>
      <trkpt lat="44.79212" lon="0.4962">
        <ele>176.333566</ele>
        <time>2022-07-11T19:07:36.024Z</time>
      </trkpt>
      <trkpt lat="44.79203" lon="0.4958">
        <ele>176.136696</ele>
        <time>2022-07-11T19:07:40.956Z</time>
      </trkpt>
      <trkpt lat="44.79182" lon="0.49535">
        <ele>175.846507</ele>
        <time>2022-07-11T19:07:47.064Z</time>
      </trkpt>
      <trkpt lat="44.79144" lon="0.49458">
        <ele>174.915878</ele>
        <time>2022-07-11T19:07:57.620Z</time>
      </trkpt>
      <trkpt lat="44.79197" lon="0.49435">
        <ele>174.138874</ele>
        <time>2022-07-11T19:08:06.207Z</time>
      </trkpt>
      <trkpt lat="44.79291" lon="0.49314">
        <ele>171.816717</ele>
        <time>2022-07-11T19:08:25.729Z</time>
      </trkpt>
      <trkpt lat="44.7932" lon="0.49276">
        <ele>170.979946</ele>
        <time>2022-07-11T19:08:31.323Z</time>
      </trkpt>
      <trkpt lat="44.79344" lon="0.49245">
        <ele>170.290592</ele>
        <time>2022-07-11T19:08:35.802Z</time>
      </trkpt>
      <trkpt lat="44.79355" lon="0.49228">
        <ele>169.944747</ele>
        <time>2022-07-11T19:08:38.181Z</time>
      </trkpt>
      <trkpt lat="44.79357" lon="0.49203">
        <ele>169.571654</ele>
        <time>2022-07-11T19:08:40.731Z</time>
      </trkpt>
      <trkpt lat="44.79356" lon="0.49163">
        <ele>169.116754</ele>
        <time>2022-07-11T19:08:44.915Z</time>
      </trkpt>
      <trkpt lat="44.79362" lon="0.49154">
        <ele>167.261329</ele>
        <time>2022-07-11T19:09:41.841Z</time>
      </trkpt>
      <trkpt lat="44.79378" lon="0.49149">
        <ele>167.329132</ele>
        <time>2022-07-11T19:09:44.719Z</time>
      </trkpt>
    </trkseg>
  </trk>
</gpx>